<?xml version="1.0" encoding="UTF-8" standalone="no" ?><gpx xmlns="http://www.topografix.com/GPX/1/1" xmlns:gpxx="http://www.garmin.com/xmlschemas/GpxExtensions/v3" xmlns:wptx1="http://www.garmin.com/xmlschemas/WaypointExtension/v1" xmlns:gpxtpx="http://www.garmin.com/xmlschemas/TrackPointExtension/v1" creator="Dakota 20" version="1.1" xmlns:xsi="http://www.w3.org/2001/XMLSchema-instance" xsi:schemaLocation="http://www.topografix.com/GPX/1/1 http://www.topografix.com/GPX/1/1/gpx.xsd http://www.garmin.com/xmlschemas/GpxExtensions/v3 http://www8.garmin.com/xmlschemas/GpxExtensionsv3.xsd http://www.garmin.com/xmlschemas/WaypointExtension/v1 http://www8.garmin.com/xmlschemas/WaypointExtensionv1.xsd http://www.garmin.com/xmlschemas/TrackPointExtension/v1 http://www.garmin.com/xmlschemas/TrackPointExtensionv1.xsd"><metadata><link href="http://www.garmin.com"><text>Garmin International</text></link><time>2014-01-08T15:11:42Z</time></metadata><trk><name>Current Track: 08 JAN 2014 10:01</name><extensions><gpxx:TrackExtension><gpxx:DisplayColor>Cyan</gpxx:DisplayColor></gpxx:TrackExtension></extensions><trkseg><trkpt lat="51.7700992338" lon="-1.9733933732"><ele>113.09</ele><time>2014-01-08T10:01:10Z</time></trkpt><trkpt lat="51.7701290734" lon="-1.9734720793"><ele>113.09</ele><time>2014-01-08T10:01:26Z</time></trkpt><trkpt lat="51.7701445799" lon="-1.9735744223"><ele>113.09</ele><time>2014-01-08T10:01:39Z</time></trkpt><trkpt lat="51.7701132316" lon="-1.9737213571"><ele>112.61</ele><time>2014-01-08T10:01:53Z</time></trkpt><trkpt lat="51.7700481042" lon="-1.9738731533"><ele>113.09</ele><time>2014-01-08T10:02:07Z</time></trkpt><trkpt lat="51.7700130679" lon="-1.9739079382"><ele>112.61</ele><time>2014-01-08T10:02:20Z</time></trkpt><trkpt lat="51.7699823063" lon="-1.9739412144"><ele>113.09</ele><time>2014-01-08T10:02:23Z</time></trkpt><trkpt lat="51.7698603496" lon="-1.9740070961"><ele>113.57</ele><time>2014-01-08T10:02:36Z</time></trkpt><trkpt lat="51.7697952222" lon="-1.9740457367"><ele>113.57</ele><time>2014-01-08T10:02:43Z</time></trkpt><trkpt lat="51.7697684839" lon="-1.9740679488"><ele>113.57</ele><time>2014-01-08T10:02:45Z</time></trkpt><trkpt lat="51.7695958167" lon="-1.9742508419"><ele>113.09</ele><time>2014-01-08T10:03:01Z</time></trkpt><trkpt lat="51.7694565095" lon="-1.9743350800"><ele>113.57</ele><time>2014-01-08T10:03:14Z</time></trkpt><trkpt lat="51.7693631351" lon="-1.9744050689"><ele>114.53</ele><time>2014-01-08T10:03:27Z</time></trkpt><trkpt lat="51.7693252489" lon="-1.9744003750"><ele>114.53</ele><time>2014-01-08T10:03:42Z</time></trkpt><trkpt lat="51.7692875303" lon="-1.9744271971"><ele>114.53</ele><time>2014-01-08T10:04:01Z</time></trkpt><trkpt lat="51.7692705151" lon="-1.9744458888"><ele>115.01</ele><time>2014-01-08T10:04:10Z</time></trkpt><trkpt lat="51.7692267615" lon="-1.9744448829"><ele>115.98</ele><time>2014-01-08T10:04:16Z</time></trkpt><trkpt lat="51.7692053039" lon="-1.9744384289"><ele>115.50</ele><time>2014-01-08T10:04:18Z</time></trkpt><trkpt lat="51.7690632306" lon="-1.9743164722"><ele>115.50</ele><time>2014-01-08T10:04:31Z</time></trkpt><trkpt lat="51.7689118534" lon="-1.9742199965"><ele>117.42</ele><time>2014-01-08T10:04:45Z</time></trkpt><trkpt lat="51.7687988654" lon="-1.9741749857"><ele>118.38</ele><time>2014-01-08T10:04:55Z</time></trkpt><trkpt lat="51.7687069997" lon="-1.9742640015"><ele>118.86</ele><time>2014-01-08T10:05:08Z</time></trkpt><trkpt lat="51.7687038146" lon="-1.9743180647"><ele>119.34</ele><time>2014-01-08T10:05:21Z</time></trkpt><trkpt lat="51.7687037308" lon="-1.9743406121"><ele>118.86</ele><time>2014-01-08T10:05:28Z</time></trkpt><trkpt lat="51.7687267810" lon="-1.9744002074"><ele>119.34</ele><time>2014-01-08T10:05:42Z</time></trkpt><trkpt lat="51.7687411141" lon="-1.9743377622"><ele>119.82</ele><time>2014-01-08T10:06:01Z</time></trkpt><trkpt lat="51.7687027249" lon="-1.9743589684"><ele>119.82</ele><time>2014-01-08T10:06:22Z</time></trkpt><trkpt lat="51.7687075865" lon="-1.9743678533"><ele>119.82</ele><time>2014-01-08T10:06:38Z</time></trkpt><trkpt lat="51.7687078379" lon="-1.9743723795"><ele>119.82</ele><time>2014-01-08T10:07:00Z</time></trkpt><trkpt lat="51.7687230930" lon="-1.9743324816"><ele>119.82</ele><time>2014-01-08T10:07:27Z</time></trkpt><trkpt lat="51.7687974405" lon="-1.9742170628"><ele>119.34</ele><time>2014-01-08T10:07:40Z</time></trkpt><trkpt lat="51.7689538468" lon="-1.9742702879"><ele>117.90</ele><time>2014-01-08T10:07:56Z</time></trkpt><trkpt lat="51.7689706944" lon="-1.9742828608"><ele>118.38</ele><time>2014-01-08T10:07:58Z</time></trkpt><trkpt lat="51.7689986899" lon="-1.9742932543"><ele>117.42</ele><time>2014-01-08T10:08:01Z</time></trkpt><trkpt lat="51.7690269370" lon="-1.9743321463"><ele>117.90</ele><time>2014-01-08T10:08:13Z</time></trkpt><trkpt lat="51.7690437846" lon="-1.9743233453"><ele>117.42</ele><time>2014-01-08T10:08:15Z</time></trkpt><trkpt lat="51.7692339700" lon="-1.9744139537"><ele>116.94</ele><time>2014-01-08T10:08:31Z</time></trkpt><trkpt lat="51.7693212256" lon="-1.9744326454"><ele>116.46</ele><time>2014-01-08T10:08:47Z</time></trkpt><trkpt lat="51.7693348043" lon="-1.9744424522"><ele>116.46</ele><time>2014-01-08T10:09:07Z</time></trkpt><trkpt lat="51.7692406755" lon="-1.9744910672"><ele>116.94</ele><time>2014-01-08T10:09:17Z</time></trkpt><trkpt lat="51.7691257596" lon="-1.9746065699"><ele>117.90</ele><time>2014-01-08T10:09:31Z</time></trkpt><trkpt lat="51.7690620571" lon="-1.9746480603"><ele>118.86</ele><time>2014-01-08T10:09:38Z</time></trkpt><trkpt lat="51.7689618096" lon="-1.9747183006"><ele>118.86</ele><time>2014-01-08T10:09:50Z</time></trkpt><trkpt lat="51.7689178884" lon="-1.9747457094"><ele>119.34</ele><time>2014-01-08T10:09:57Z</time></trkpt><trkpt lat="51.7687895615" lon="-1.9748291094"><ele>119.82</ele><time>2014-01-08T10:10:09Z</time></trkpt><trkpt lat="51.7687395215" lon="-1.9748596195"><ele>120.30</ele><time>2014-01-08T10:10:14Z</time></trkpt><trkpt lat="51.7686870508" lon="-1.9748681691"><ele>120.78</ele><time>2014-01-08T10:10:19Z</time></trkpt><trkpt lat="51.7685526889" lon="-1.9748276845"><ele>121.74</ele><time>2014-01-08T10:10:33Z</time></trkpt><trkpt lat="51.7684805207" lon="-1.9746704400"><ele>123.67</ele><time>2014-01-08T10:10:49Z</time></trkpt><trkpt lat="51.7684755754" lon="-1.9745038915"><ele>124.15</ele><time>2014-01-08T10:11:01Z</time></trkpt><trkpt lat="51.7684269603" lon="-1.9742003828"><ele>125.11</ele><time>2014-01-08T10:11:16Z</time></trkpt><trkpt lat="51.7683153972" lon="-1.9740687031"><ele>126.55</ele><time>2014-01-08T10:11:30Z</time></trkpt><trkpt lat="51.7681750841" lon="-1.9740194175"><ele>127.03</ele><time>2014-01-08T10:11:44Z</time></trkpt><trkpt lat="51.7681352701" lon="-1.9740234409"><ele>127.99</ele><time>2014-01-08T10:11:49Z</time></trkpt><trkpt lat="51.7681050114" lon="-1.9740529452"><ele>128.95</ele><time>2014-01-08T10:11:53Z</time></trkpt><trkpt lat="51.7680278979" lon="-1.9741484150"><ele>129.92</ele><time>2014-01-08T10:12:04Z</time></trkpt><trkpt lat="51.7680173367" lon="-1.9741743151"><ele>130.40</ele><time>2014-01-08T10:12:06Z</time></trkpt><trkpt lat="51.7679249682" lon="-1.9743790012"><ele>132.32</ele><time>2014-01-08T10:12:22Z</time></trkpt><trkpt lat="51.7679195199" lon="-1.9744055718"><ele>132.32</ele><time>2014-01-08T10:12:24Z</time></trkpt><trkpt lat="51.7678942904" lon="-1.9745515008"><ele>133.76</ele><time>2014-01-08T10:12:36Z</time></trkpt><trkpt lat="51.7678533867" lon="-1.9747831766"><ele>134.72</ele><time>2014-01-08T10:12:51Z</time></trkpt><trkpt lat="51.7678321805" lon="-1.9749452826"><ele>136.16</ele><time>2014-01-08T10:13:04Z</time></trkpt><trkpt lat="51.7678167578" lon="-1.9749880303"><ele>136.64</ele><time>2014-01-08T10:13:07Z</time></trkpt><trkpt lat="51.7676951364" lon="-1.9750909600"><ele>138.09</ele><time>2014-01-08T10:13:24Z</time></trkpt><trkpt lat="51.7675918713" lon="-1.9751511421"><ele>139.53</ele><time>2014-01-08T10:13:36Z</time></trkpt><trkpt lat="51.7674394045" lon="-1.9752198737"><ele>140.97</ele><time>2014-01-08T10:13:52Z</time></trkpt><trkpt lat="51.7673056293" lon="-1.9753004238"><ele>141.93</ele><time>2014-01-08T10:14:07Z</time></trkpt><trkpt lat="51.7671609577" lon="-1.9753558282"><ele>141.45</ele><time>2014-01-08T10:14:20Z</time></trkpt><trkpt lat="51.7670178786" lon="-1.9754072931"><ele>141.93</ele><time>2014-01-08T10:14:36Z</time></trkpt><trkpt lat="51.7668897193" lon="-1.9754699897"><ele>142.89</ele><time>2014-01-08T10:14:50Z</time></trkpt><trkpt lat="51.7667571176" lon="-1.9755351171"><ele>143.37</ele><time>2014-01-08T10:15:05Z</time></trkpt><trkpt lat="51.7666384298" lon="-1.9756486081"><ele>144.82</ele><time>2014-01-08T10:15:19Z</time></trkpt><trkpt lat="51.7665266991" lon="-1.9757459220"><ele>145.30</ele><time>2014-01-08T10:15:32Z</time></trkpt><trkpt lat="51.7663937621" lon="-1.9758561440"><ele>145.78</ele><time>2014-01-08T10:15:46Z</time></trkpt><trkpt lat="51.7662653513" lon="-1.9759704731"><ele>145.78</ele><time>2014-01-08T10:16:00Z</time></trkpt><trkpt lat="51.7661793530" lon="-1.9760260452"><ele>145.78</ele><time>2014-01-08T10:16:11Z</time></trkpt><trkpt lat="51.7661144771" lon="-1.9760951120"><ele>146.26</ele><time>2014-01-08T10:16:19Z</time></trkpt><trkpt lat="51.7660028301" lon="-1.9762584753"><ele>145.78</ele><time>2014-01-08T10:16:32Z</time></trkpt><trkpt lat="51.7659202684" lon="-1.9763968606"><ele>147.22</ele><time>2014-01-08T10:16:46Z</time></trkpt><trkpt lat="51.7658539675" lon="-1.9765482377"><ele>148.18</ele><time>2014-01-08T10:16:56Z</time></trkpt><trkpt lat="51.7658382934" lon="-1.9765950926"><ele>148.66</ele><time>2014-01-08T10:17:00Z</time></trkpt><trkpt lat="51.7657492775" lon="-1.9767554384"><ele>150.10</ele><time>2014-01-08T10:17:14Z</time></trkpt><trkpt lat="51.7657381296" lon="-1.9767698552"><ele>150.10</ele><time>2014-01-08T10:17:16Z</time></trkpt><trkpt lat="51.7656559870" lon="-1.9769420195"><ele>151.54</ele><time>2014-01-08T10:17:29Z</time></trkpt><trkpt lat="51.7655730061" lon="-1.9771264214"><ele>152.51</ele><time>2014-01-08T10:17:44Z</time></trkpt><trkpt lat="51.7655364610" lon="-1.9772180356"><ele>153.47</ele><time>2014-01-08T10:17:51Z</time></trkpt><trkpt lat="51.7655058671" lon="-1.9772966579"><ele>153.95</ele><time>2014-01-08T10:17:57Z</time></trkpt><trkpt lat="51.7654922046" lon="-1.9773259107"><ele>153.95</ele><time>2014-01-08T10:17:59Z</time></trkpt><trkpt lat="51.7654307652" lon="-1.9774807245"><ele>154.91</ele><time>2014-01-08T10:18:13Z</time></trkpt><trkpt lat="51.7653570045" lon="-1.9776726700"><ele>156.35</ele><time>2014-01-08T10:18:27Z</time></trkpt><trkpt lat="51.7653012648" lon="-1.9778113067"><ele>157.31</ele><time>2014-01-08T10:18:37Z</time></trkpt><trkpt lat="51.7652930506" lon="-1.9778413139"><ele>157.79</ele><time>2014-01-08T10:18:39Z</time></trkpt><trkpt lat="51.7652789690" lon="-1.9778836425"><ele>157.79</ele><time>2014-01-08T10:18:42Z</time></trkpt><trkpt lat="51.7652709223" lon="-1.9779255521"><ele>158.27</ele><time>2014-01-08T10:18:45Z</time></trkpt><trkpt lat="51.7652156018" lon="-1.9781038351"><ele>158.75</ele><time>2014-01-08T10:18:58Z</time></trkpt><trkpt lat="51.7651723512" lon="-1.9782444835"><ele>160.20</ele><time>2014-01-08T10:19:09Z</time></trkpt><trkpt lat="51.7651334591" lon="-1.9783702958"><ele>160.68</ele><time>2014-01-08T10:19:17Z</time></trkpt><trkpt lat="51.7651136778" lon="-1.9784688670"><ele>160.68</ele><time>2014-01-08T10:19:24Z</time></trkpt><trkpt lat="51.7650909629" lon="-1.9785490818"><ele>161.16</ele><time>2014-01-08T10:19:29Z</time></trkpt><trkpt lat="51.7650373187" lon="-1.9787805900"><ele>162.60</ele><time>2014-01-08T10:19:44Z</time></trkpt><trkpt lat="51.7649923917" lon="-1.9789872039"><ele>163.56</ele><time>2014-01-08T10:19:57Z</time></trkpt><trkpt lat="51.7649721075" lon="-1.9791348930"><ele>164.04</ele><time>2014-01-08T10:20:08Z</time></trkpt><trkpt lat="51.7649426870" lon="-1.9793621264"><ele>165.48</ele><time>2014-01-08T10:20:23Z</time></trkpt><trkpt lat="51.7649191339" lon="-1.9795515575"><ele>165.96</ele><time>2014-01-08T10:20:35Z</time></trkpt><trkpt lat="51.7649095785" lon="-1.9797652960"><ele>166.93</ele><time>2014-01-08T10:20:49Z</time></trkpt><trkpt lat="51.7648861930" lon="-1.9799599238"><ele>167.41</ele><time>2014-01-08T10:21:01Z</time></trkpt><trkpt lat="51.7648778949" lon="-1.9801659510"><ele>168.37</ele><time>2014-01-08T10:21:16Z</time></trkpt><trkpt lat="51.7648441158" lon="-1.9804012310"><ele>168.85</ele><time>2014-01-08T10:21:30Z</time></trkpt><trkpt lat="51.7647723667" lon="-1.9805532787"><ele>169.81</ele><time>2014-01-08T10:21:45Z</time></trkpt><trkpt lat="51.7646732088" lon="-1.9804407097"><ele>170.29</ele><time>2014-01-08T10:21:59Z</time></trkpt><trkpt lat="51.7646683473" lon="-1.9804319087"><ele>170.29</ele><time>2014-01-08T10:22:00Z</time></trkpt><trkpt lat="51.7645499110" lon="-1.9802511949"><ele>169.81</ele><time>2014-01-08T10:22:17Z</time></trkpt><trkpt lat="51.7645168863" lon="-1.9802059326"><ele>169.81</ele><time>2014-01-08T10:22:22Z</time></trkpt><trkpt lat="51.7644982785" lon="-1.9801879115"><ele>169.33</ele><time>2014-01-08T10:22:24Z</time></trkpt><trkpt lat="51.7644005455" lon="-1.9800317567"><ele>169.33</ele><time>2014-01-08T10:22:38Z</time></trkpt><trkpt lat="51.7643075902" lon="-1.9798787031"><ele>168.85</ele><time>2014-01-08T10:22:52Z</time></trkpt><trkpt lat="51.7642662674" lon="-1.9798225444"><ele>168.37</ele><time>2014-01-08T10:22:58Z</time></trkpt><trkpt lat="51.7642422114" lon="-1.9797888491"><ele>168.37</ele><time>2014-01-08T10:23:01Z</time></trkpt><trkpt lat="51.7641402036" lon="-1.9796779566"><ele>167.89</ele><time>2014-01-08T10:23:15Z</time></trkpt><trkpt lat="51.7641123757" lon="-1.9796546549"><ele>167.89</ele><time>2014-01-08T10:23:18Z</time></trkpt><trkpt lat="51.7640444823" lon="-1.9795818999"><ele>167.89</ele><time>2014-01-08T10:23:28Z</time></trkpt><trkpt lat="51.7639254592" lon="-1.9794363063"><ele>167.41</ele><time>2014-01-08T10:23:44Z</time></trkpt><trkpt lat="51.7639012355" lon="-1.9794095680"><ele>167.41</ele><time>2014-01-08T10:23:47Z</time></trkpt><trkpt lat="51.7638371978" lon="-1.9793417584"><ele>167.41</ele><time>2014-01-08T10:23:55Z</time></trkpt><trkpt lat="51.7637377884" lon="-1.9792151079"><ele>167.41</ele><time>2014-01-08T10:24:09Z</time></trkpt><trkpt lat="51.7636252195" lon="-1.9790603779"><ele>166.93</ele><time>2014-01-08T10:24:24Z</time></trkpt><trkpt lat="51.7635153327" lon="-1.9789261837"><ele>166.45</ele><time>2014-01-08T10:24:39Z</time></trkpt><trkpt lat="51.7634097207" lon="-1.9787922408"><ele>165.96</ele><time>2014-01-08T10:24:53Z</time></trkpt><trkpt lat="51.7633194476" lon="-1.9786929991"><ele>166.45</ele><time>2014-01-08T10:25:05Z</time></trkpt><trkpt lat="51.7633141670" lon="-1.9786818512"><ele>165.48</ele><time>2014-01-08T10:25:06Z</time></trkpt><trkpt lat="51.7631939705" lon="-1.9784964435"><ele>165.48</ele><time>2014-01-08T10:25:21Z</time></trkpt><trkpt lat="51.7631870974" lon="-1.9784801826"><ele>165.00</ele><time>2014-01-08T10:25:22Z</time></trkpt><trkpt lat="51.7630955670" lon="-1.9783379417"><ele>164.52</ele><time>2014-01-08T10:25:35Z</time></trkpt><trkpt lat="51.7629778851" lon="-1.9781330880"><ele>165.00</ele><time>2014-01-08T10:25:52Z</time></trkpt><trkpt lat="51.7629036214" lon="-1.9779785257"><ele>164.04</ele><time>2014-01-08T10:26:04Z</time></trkpt><trkpt lat="51.7628181260" lon="-1.9777787849"><ele>163.56</ele><time>2014-01-08T10:26:20Z</time></trkpt><trkpt lat="51.7627242487" lon="-1.9775799662"><ele>163.08</ele><time>2014-01-08T10:26:36Z</time></trkpt><trkpt lat="51.7626785673" lon="-1.9774086401"><ele>161.64</ele><time>2014-01-08T10:26:49Z</time></trkpt><trkpt lat="51.7626115121" lon="-1.9772230648"><ele>160.68</ele><time>2014-01-08T10:27:03Z</time></trkpt><trkpt lat="51.7625847738" lon="-1.9771626312"><ele>160.68</ele><time>2014-01-08T10:27:07Z</time></trkpt><trkpt lat="51.7625691835" lon="-1.9770970009"><ele>160.68</ele><time>2014-01-08T10:27:12Z</time></trkpt><trkpt lat="51.7624930758" lon="-1.9768925663"><ele>159.72</ele><time>2014-01-08T10:27:26Z</time></trkpt><trkpt lat="51.7624204885" lon="-1.9767340645"><ele>159.24</ele><time>2014-01-08T10:27:39Z</time></trkpt><trkpt lat="51.7623822670" lon="-1.9766725414"><ele>159.24</ele><time>2014-01-08T10:27:44Z</time></trkpt><trkpt lat="51.7623585463" lon="-1.9766155444"><ele>158.75</ele><time>2014-01-08T10:27:48Z</time></trkpt><trkpt lat="51.7623446323" lon="-1.9765868783"><ele>158.75</ele><time>2014-01-08T10:27:50Z</time></trkpt><trkpt lat="51.7622367572" lon="-1.9763759058"><ele>158.27</ele><time>2014-01-08T10:28:06Z</time></trkpt><trkpt lat="51.7622030620" lon="-1.9763326552"><ele>158.27</ele><time>2014-01-08T10:28:11Z</time></trkpt><trkpt lat="51.7621428799" lon="-1.9762397837"><ele>157.79</ele><time>2014-01-08T10:28:19Z</time></trkpt><trkpt lat="51.7620134633" lon="-1.9760837127"><ele>157.31</ele><time>2014-01-08T10:28:34Z</time></trkpt><trkpt lat="51.7619998846" lon="-1.9760583155"><ele>157.79</ele><time>2014-01-08T10:28:36Z</time></trkpt><trkpt lat="51.7618765030" lon="-1.9759191759"><ele>157.31</ele><time>2014-01-08T10:28:51Z</time></trkpt><trkpt lat="51.7618326657" lon="-1.9758629333"><ele>156.83</ele><time>2014-01-08T10:28:58Z</time></trkpt><trkpt lat="51.7617793567" lon="-1.9758213591"><ele>156.83</ele><time>2014-01-08T10:29:04Z</time></trkpt><trkpt lat="51.7617537081" lon="-1.9758505281"><ele>152.99</ele><time>2014-01-08T10:29:07Z</time></trkpt><trkpt lat="51.7617418896" lon="-1.9758513663"><ele>157.79</ele><time>2014-01-08T10:29:08Z</time></trkpt><trkpt lat="51.7616544664" lon="-1.9756514579"><ele>157.31</ele><time>2014-01-08T10:29:21Z</time></trkpt><trkpt lat="51.7615621816" lon="-1.9756201934"><ele>158.27</ele><time>2014-01-08T10:29:35Z</time></trkpt><trkpt lat="51.7614066973" lon="-1.9755298365"><ele>156.83</ele><time>2014-01-08T10:29:49Z</time></trkpt><trkpt lat="51.7613435816" lon="-1.9754471909"><ele>156.83</ele><time>2014-01-08T10:29:58Z</time></trkpt><trkpt lat="51.7612766940" lon="-1.9753857516"><ele>156.83</ele><time>2014-01-08T10:30:06Z</time></trkpt><trkpt lat="51.7611554917" lon="-1.9752885215"><ele>156.35</ele><time>2014-01-08T10:30:21Z</time></trkpt><trkpt lat="51.7610757798" lon="-1.9752280042"><ele>156.35</ele><time>2014-01-08T10:30:30Z</time></trkpt><trkpt lat="51.7610092275" lon="-1.9751602784"><ele>156.35</ele><time>2014-01-08T10:30:38Z</time></trkpt><trkpt lat="51.7609236483" lon="-1.9750683289"><ele>156.83</ele><time>2014-01-08T10:30:51Z</time></trkpt><trkpt lat="51.7609150987" lon="-1.9750322029"><ele>156.35</ele><time>2014-01-08T10:30:55Z</time></trkpt><trkpt lat="51.7608498875" lon="-1.9749389961"><ele>156.83</ele><time>2014-01-08T10:31:06Z</time></trkpt><trkpt lat="51.7608029488" lon="-1.9748725276"><ele>156.35</ele><time>2014-01-08T10:31:12Z</time></trkpt><trkpt lat="51.7607182078" lon="-1.9747572765"><ele>155.87</ele><time>2014-01-08T10:31:26Z</time></trkpt><trkpt lat="51.7606861051" lon="-1.9747151993"><ele>155.39</ele><time>2014-01-08T10:31:30Z</time></trkpt><trkpt lat="51.7606405076" lon="-1.9746976811"><ele>156.35</ele><time>2014-01-08T10:31:33Z</time></trkpt><trkpt lat="51.7605882883" lon="-1.9746457133"><ele>155.87</ele><time>2014-01-08T10:31:38Z</time></trkpt><trkpt lat="51.7604396772" lon="-1.9745307975"><ele>155.39</ele><time>2014-01-08T10:31:52Z</time></trkpt><trkpt lat="51.7603474762" lon="-1.9744742196"><ele>156.35</ele><time>2014-01-08T10:32:01Z</time></trkpt><trkpt lat="51.7601562850" lon="-1.9744210783"><ele>155.39</ele><time>2014-01-08T10:32:14Z</time></trkpt><trkpt lat="51.7600081768" lon="-1.9743521791"><ele>155.39</ele><time>2014-01-08T10:32:29Z</time></trkpt><trkpt lat="51.7598986253" lon="-1.9742914941"><ele>154.91</ele><time>2014-01-08T10:32:44Z</time></trkpt><trkpt lat="51.7598903272" lon="-1.9742815197"><ele>154.91</ele><time>2014-01-08T10:32:45Z</time></trkpt><trkpt lat="51.7597998027" lon="-1.9741861336"><ele>154.43</ele><time>2014-01-08T10:32:58Z</time></trkpt><trkpt lat="51.7597549595" lon="-1.9741598982"><ele>154.91</ele><time>2014-01-08T10:33:02Z</time></trkpt><trkpt lat="51.7596883234" lon="-1.9741186593"><ele>154.91</ele><time>2014-01-08T10:33:17Z</time></trkpt><trkpt lat="51.7596692964" lon="-1.9740991294"><ele>154.43</ele><time>2014-01-08T10:33:19Z</time></trkpt><trkpt lat="51.7595915124" lon="-1.9740678649"><ele>154.43</ele><time>2014-01-08T10:33:27Z</time></trkpt><trkpt lat="51.7595622595" lon="-1.9740599021"><ele>153.95</ele><time>2014-01-08T10:33:31Z</time></trkpt><trkpt lat="51.7594942823" lon="-1.9740376901"><ele>153.47</ele><time>2014-01-08T10:33:37Z</time></trkpt><trkpt lat="51.7594419792" lon="-1.9739848003"><ele>153.47</ele><time>2014-01-08T10:33:42Z</time></trkpt><trkpt lat="51.7592926975" lon="-1.9738584850"><ele>152.99</ele><time>2014-01-08T10:33:57Z</time></trkpt><trkpt lat="51.7592540570" lon="-1.9738287292"><ele>152.51</ele><time>2014-01-08T10:34:02Z</time></trkpt><trkpt lat="51.7592087947" lon="-1.9737972133"><ele>152.51</ele><time>2014-01-08T10:34:07Z</time></trkpt><trkpt lat="51.7591874208" lon="-1.9737875741"><ele>152.51</ele><time>2014-01-08T10:34:09Z</time></trkpt><trkpt lat="51.7591403984" lon="-1.9737586565"><ele>152.03</ele><time>2014-01-08T10:34:13Z</time></trkpt><trkpt lat="51.7591135763" lon="-1.9737383723"><ele>151.54</ele><time>2014-01-08T10:34:16Z</time></trkpt><trkpt lat="51.7590319365" lon="-1.9737127237"><ele>151.06</ele><time>2014-01-08T10:34:24Z</time></trkpt><trkpt lat="51.7588674836" lon="-1.9736509491"><ele>150.58</ele><time>2014-01-08T10:34:39Z</time></trkpt><trkpt lat="51.7587728519" lon="-1.9735884201"><ele>149.62</ele><time>2014-01-08T10:34:51Z</time></trkpt><trkpt lat="51.7587661464" lon="-1.9735958800"><ele>149.62</ele><time>2014-01-08T10:34:57Z</time></trkpt><trkpt lat="51.7587467842" lon="-1.9736130629"><ele>149.62</ele><time>2014-01-08T10:34:59Z</time></trkpt><trkpt lat="51.7586146016" lon="-1.9736106321"><ele>148.18</ele><time>2014-01-08T10:35:12Z</time></trkpt><trkpt lat="51.7585425172" lon="-1.9736113865"><ele>147.70</ele><time>2014-01-08T10:35:19Z</time></trkpt><trkpt lat="51.7583525833" lon="-1.9736103807"><ele>146.26</ele><time>2014-01-08T10:35:35Z</time></trkpt><trkpt lat="51.7582972627" lon="-1.9736170862"><ele>145.78</ele><time>2014-01-08T10:35:47Z</time></trkpt><trkpt lat="51.7581715342" lon="-1.9736583252"><ele>144.34</ele><time>2014-01-08T10:36:00Z</time></trkpt><trkpt lat="51.7579936702" lon="-1.9736486860"><ele>142.89</ele><time>2014-01-08T10:36:15Z</time></trkpt><trkpt lat="51.7579324823" lon="-1.9736605883"><ele>142.41</ele><time>2014-01-08T10:36:21Z</time></trkpt><trkpt lat="51.7577770818" lon="-1.9737397134"><ele>141.45</ele><time>2014-01-08T10:36:37Z</time></trkpt><trkpt lat="51.7575920094" lon="-1.9737923518"><ele>140.01</ele><time>2014-01-08T10:36:54Z</time></trkpt><trkpt lat="51.7574666161" lon="-1.9738148153"><ele>138.09</ele><time>2014-01-08T10:37:07Z</time></trkpt><trkpt lat="51.7573838029" lon="-1.9738555513"><ele>137.13</ele><time>2014-01-08T10:37:19Z</time></trkpt><trkpt lat="51.7572577391" lon="-1.9739030767"><ele>135.68</ele><time>2014-01-08T10:37:33Z</time></trkpt><trkpt lat="51.7571484391" lon="-1.9739202596"><ele>134.72</ele><time>2014-01-08T10:37:46Z</time></trkpt><trkpt lat="51.7570460960" lon="-1.9739675336"><ele>132.32</ele><time>2014-01-08T10:38:01Z</time></trkpt><trkpt lat="51.7569194455" lon="-1.9740293082"><ele>130.88</ele><time>2014-01-08T10:38:15Z</time></trkpt><trkpt lat="51.7566932179" lon="-1.9741054997"><ele>128.95</ele><time>2014-01-08T10:38:29Z</time></trkpt><trkpt lat="51.7565933056" lon="-1.9741519354"><ele>127.03</ele><time>2014-01-08T10:38:44Z</time></trkpt><trkpt lat="51.7564732768" lon="-1.9741984550"><ele>125.59</ele><time>2014-01-08T10:39:02Z</time></trkpt><trkpt lat="51.7561973445" lon="-1.9743013009"><ele>123.67</ele><time>2014-01-08T10:39:15Z</time></trkpt><trkpt lat="51.7560106795" lon="-1.9743596390"><ele>121.26</ele><time>2014-01-08T10:39:32Z</time></trkpt><trkpt lat="51.7558579613" lon="-1.9744209107"><ele>120.30</ele><time>2014-01-08T10:39:48Z</time></trkpt><trkpt lat="51.7557146307" lon="-1.9745116867"><ele>117.90</ele><time>2014-01-08T10:40:03Z</time></trkpt><trkpt lat="51.7556640040" lon="-1.9745520875"><ele>116.94</ele><time>2014-01-08T10:40:18Z</time></trkpt><trkpt lat="51.7554823682" lon="-1.9746424444"><ele>115.50</ele><time>2014-01-08T10:40:30Z</time></trkpt><trkpt lat="51.7553207651" lon="-1.9747309573"><ele>114.05</ele><time>2014-01-08T10:40:44Z</time></trkpt><trkpt lat="51.7552359402" lon="-1.9747877866"><ele>113.57</ele><time>2014-01-08T10:40:57Z</time></trkpt><trkpt lat="51.7551683821" lon="-1.9748416822"><ele>113.09</ele><time>2014-01-08T10:41:08Z</time></trkpt><trkpt lat="51.7551263887" lon="-1.9748489745"><ele>113.57</ele><time>2014-01-08T10:41:20Z</time></trkpt><trkpt lat="51.7550344393" lon="-1.9748733658"><ele>112.61</ele><time>2014-01-08T10:41:31Z</time></trkpt><trkpt lat="51.7549669649" lon="-1.9750027824"><ele>112.13</ele><time>2014-01-08T10:41:46Z</time></trkpt><trkpt lat="51.7548368778" lon="-1.9751794729"><ele>112.13</ele><time>2014-01-08T10:41:58Z</time></trkpt><trkpt lat="51.7548020929" lon="-1.9752062112"><ele>112.13</ele><time>2014-01-08T10:42:01Z</time></trkpt><trkpt lat="51.7546485364" lon="-1.9753017649"><ele>112.13</ele><time>2014-01-08T10:42:15Z</time></trkpt><trkpt lat="51.7546344548" lon="-1.9753721729"><ele>112.61</ele><time>2014-01-08T10:42:30Z</time></trkpt><trkpt lat="51.7546458542" lon="-1.9753983244"><ele>111.65</ele><time>2014-01-08T10:42:52Z</time></trkpt><trkpt lat="51.7546430044" lon="-1.9753772859"><ele>112.13</ele><time>2014-01-08T10:42:58Z</time></trkpt><trkpt lat="51.7546434235" lon="-1.9753271621"><ele>112.61</ele><time>2014-01-08T10:43:11Z</time></trkpt><trkpt lat="51.7546393164" lon="-1.9753752742"><ele>112.61</ele><time>2014-01-08T10:43:36Z</time></trkpt><trkpt lat="51.7546344548" lon="-1.9753642939"><ele>112.61</ele><time>2014-01-08T10:44:03Z</time></trkpt><trkpt lat="51.7546353769" lon="-1.9753377233"><ele>112.61</ele><time>2014-01-08T10:44:28Z</time></trkpt><trkpt lat="51.7546337843" lon="-1.9753268268"><ele>113.09</ele><time>2014-01-08T10:44:53Z</time></trkpt><trkpt lat="51.7546309344" lon="-1.9753196184"><ele>112.61</ele><time>2014-01-08T10:45:13Z</time></trkpt><trkpt lat="51.7545990832" lon="-1.9753176067"><ele>112.61</ele><time>2014-01-08T10:45:29Z</time></trkpt><trkpt lat="51.7545286752" lon="-1.9753374718"><ele>113.09</ele><time>2014-01-08T10:45:40Z</time></trkpt><trkpt lat="51.7544576805" lon="-1.9753491227"><ele>112.61</ele><time>2014-01-08T10:45:50Z</time></trkpt><trkpt lat="51.7543513980" lon="-1.9753979053"><ele>112.61</ele><time>2014-01-08T10:46:02Z</time></trkpt><trkpt lat="51.7543021124" lon="-1.9754036888"><ele>113.09</ele><time>2014-01-08T10:46:07Z</time></trkpt><trkpt lat="51.7541689239" lon="-1.9754481968"><ele>113.09</ele><time>2014-01-08T10:46:22Z</time></trkpt><trkpt lat="51.7541294452" lon="-1.9754580874"><ele>113.57</ele><time>2014-01-08T10:46:26Z</time></trkpt><trkpt lat="51.7540138587" lon="-1.9755004160"><ele>114.05</ele><time>2014-01-08T10:46:39Z</time></trkpt><trkpt lat="51.7539704405" lon="-1.9755005836"><ele>114.53</ele><time>2014-01-08T10:46:44Z</time></trkpt><trkpt lat="51.7539495695" lon="-1.9755093008"><ele>114.53</ele><time>2014-01-08T10:46:46Z</time></trkpt><trkpt lat="51.7538650800" lon="-1.9755331054"><ele>115.01</ele><time>2014-01-08T10:46:56Z</time></trkpt><trkpt lat="51.7537352443" lon="-1.9755974784"><ele>116.46</ele><time>2014-01-08T10:47:09Z</time></trkpt><trkpt lat="51.7536144610" lon="-1.9755937904"><ele>117.42</ele><time>2014-01-08T10:47:22Z</time></trkpt><trkpt lat="51.7534775846" lon="-1.9755740929"><ele>117.42</ele><time>2014-01-08T10:47:35Z</time></trkpt><trkpt lat="51.7533404566" lon="-1.9755367935"><ele>118.38</ele><time>2014-01-08T10:47:48Z</time></trkpt><trkpt lat="51.7532850523" lon="-1.9755173475"><ele>117.90</ele><time>2014-01-08T10:47:54Z</time></trkpt><trkpt lat="51.7531781830" lon="-1.9754403178"><ele>117.90</ele><time>2014-01-08T10:48:05Z</time></trkpt><trkpt lat="51.7531581502" lon="-1.9754212070"><ele>117.90</ele><time>2014-01-08T10:48:07Z</time></trkpt><trkpt lat="51.7531030811" lon="-1.9753414113"><ele>117.90</ele><time>2014-01-08T10:48:13Z</time></trkpt><trkpt lat="51.7530758400" lon="-1.9753029384"><ele>117.42</ele><time>2014-01-08T10:48:16Z</time></trkpt><trkpt lat="51.7529563978" lon="-1.9752136711"><ele>117.90</ele><time>2014-01-08T10:48:28Z</time></trkpt><trkpt lat="51.7528539710" lon="-1.9751650561"><ele>117.42</ele><time>2014-01-08T10:48:38Z</time></trkpt><trkpt lat="51.7527443357" lon="-1.9750363100"><ele>116.94</ele><time>2014-01-08T10:48:51Z</time></trkpt><trkpt lat="51.7526936252" lon="-1.9749731943"><ele>117.90</ele><time>2014-01-08T10:48:57Z</time></trkpt><trkpt lat="51.7525421642" lon="-1.9748457894"><ele>117.90</ele><time>2014-01-08T10:49:12Z</time></trkpt><trkpt lat="51.7524658050" lon="-1.9748341385"><ele>119.34</ele><time>2014-01-08T10:49:22Z</time></trkpt><trkpt lat="51.7524544057" lon="-1.9747701008"><ele>119.82</ele><time>2014-01-08T10:49:35Z</time></trkpt><trkpt lat="51.7524715047" lon="-1.9747390877"><ele>119.34</ele><time>2014-01-08T10:49:38Z</time></trkpt><trkpt lat="51.7525279149" lon="-1.9746062346"><ele>118.86</ele><time>2014-01-08T10:49:53Z</time></trkpt><trkpt lat="51.7525787093" lon="-1.9744862895"><ele>117.90</ele><time>2014-01-08T10:50:04Z</time></trkpt><trkpt lat="51.7525824811" lon="-1.9744748902"><ele>117.42</ele><time>2014-01-08T10:50:05Z</time></trkpt><trkpt lat="51.7526614387" lon="-1.9743271172"><ele>116.94</ele><time>2014-01-08T10:50:18Z</time></trkpt><trkpt lat="51.7527320981" lon="-1.9741588924"><ele>115.50</ele><time>2014-01-08T10:50:32Z</time></trkpt><trkpt lat="51.7527606804" lon="-1.9741084334"><ele>115.50</ele><time>2014-01-08T10:50:47Z</time></trkpt><trkpt lat="51.7528541386" lon="-1.9739961158"><ele>113.57</ele><time>2014-01-08T10:51:00Z</time></trkpt><trkpt lat="51.7528807931" lon="-1.9739405438"><ele>113.09</ele><time>2014-01-08T10:51:05Z</time></trkpt><trkpt lat="51.7528800387" lon="-1.9738527853"><ele>113.57</ele><time>2014-01-08T10:51:20Z</time></trkpt><trkpt lat="51.7528812960" lon="-1.9738304894"><ele>113.57</ele><time>2014-01-08T10:51:22Z</time></trkpt><trkpt lat="51.7529046815" lon="-1.9736916851"><ele>113.09</ele><time>2014-01-08T10:51:30Z</time></trkpt><trkpt lat="51.7529859859" lon="-1.9736283179"><ele>113.09</ele><time>2014-01-08T10:51:44Z</time></trkpt><trkpt lat="51.7529986426" lon="-1.9736237079"><ele>113.09</ele><time>2014-01-08T10:51:52Z</time></trkpt><trkpt lat="51.7531140614" lon="-1.9735019188"><ele>112.13</ele><time>2014-01-08T10:52:06Z</time></trkpt><trkpt lat="51.7531539593" lon="-1.9734571595"><ele>112.61</ele><time>2014-01-08T10:52:10Z</time></trkpt><trkpt lat="51.7531782668" lon="-1.9734072872"><ele>112.61</ele><time>2014-01-08T10:52:13Z</time></trkpt><trkpt lat="51.7532248702" lon="-1.9732838217"><ele>111.65</ele><time>2014-01-08T10:52:22Z</time></trkpt><trkpt lat="51.7532150634" lon="-1.9731764495"><ele>111.65</ele><time>2014-01-08T10:52:35Z</time></trkpt><trkpt lat="51.7532653548" lon="-1.9730694126"><ele>111.65</ele><time>2014-01-08T10:52:46Z</time></trkpt><trkpt lat="51.7532816157" lon="-1.9730221387"><ele>111.65</ele><time>2014-01-08T10:52:50Z</time></trkpt><trkpt lat="51.7533239443" lon="-1.9728498906"><ele>111.17</ele><time>2014-01-08T10:53:04Z</time></trkpt><trkpt lat="51.7533550411" lon="-1.9727335498"><ele>111.17</ele><time>2014-01-08T10:53:12Z</time></trkpt><trkpt lat="51.7533327453" lon="-1.9725165423"><ele>111.17</ele><time>2014-01-08T10:53:27Z</time></trkpt><trkpt lat="51.7533288896" lon="-1.9724920671"><ele>111.17</ele><time>2014-01-08T10:53:29Z</time></trkpt><trkpt lat="51.7533138022" lon="-1.9723012950"><ele>111.17</ele><time>2014-01-08T10:53:42Z</time></trkpt><trkpt lat="51.7532950267" lon="-1.9720937591"><ele>111.65</ele><time>2014-01-08T10:53:57Z</time></trkpt><trkpt lat="51.7532936018" lon="-1.9719954394"><ele>111.65</ele><time>2014-01-08T10:54:13Z</time></trkpt><trkpt lat="51.7533060908" lon="-1.9719837885"><ele>112.13</ele><time>2014-01-08T10:54:32Z</time></trkpt><trkpt lat="51.7532965355" lon="-1.9719381072"><ele>112.13</ele><time>2014-01-08T10:54:52Z</time></trkpt><trkpt lat="51.7532902490" lon="-1.9719337486"><ele>112.13</ele><time>2014-01-08T10:55:16Z</time></trkpt><trkpt lat="51.7532931827" lon="-1.9719365146"><ele>111.65</ele><time>2014-01-08T10:55:38Z</time></trkpt><trkpt lat="51.7533003073" lon="-1.9719321560"><ele>112.13</ele><time>2014-01-08T10:55:59Z</time></trkpt><trkpt lat="51.7532977089" lon="-1.9719324913"><ele>112.61</ele><time>2014-01-08T10:56:26Z</time></trkpt><trkpt lat="51.7532855552" lon="-1.9719182421"><ele>112.13</ele><time>2014-01-08T10:56:55Z</time></trkpt><trkpt lat="51.7532790173" lon="-1.9719302282"><ele>112.13</ele><time>2014-01-08T10:57:29Z</time></trkpt><trkpt lat="51.7532865610" lon="-1.9719361793"><ele>112.61</ele><time>2014-01-08T10:58:05Z</time></trkpt><trkpt lat="51.7532867286" lon="-1.9719297253"><ele>112.61</ele><time>2014-01-08T10:58:36Z</time></trkpt><trkpt lat="51.7532856390" lon="-1.9719153922"><ele>112.61</ele><time>2014-01-08T10:59:05Z</time></trkpt><trkpt lat="51.7532866448" lon="-1.9719259534"><ele>113.09</ele><time>2014-01-08T10:59:37Z</time></trkpt><trkpt lat="51.7532874830" lon="-1.9719426334"><ele>113.09</ele><time>2014-01-08T11:00:15Z</time></trkpt><trkpt lat="51.7532933503" lon="-1.9719344191"><ele>113.09</ele><time>2014-01-08T11:00:45Z</time></trkpt><trkpt lat="51.7532911710" lon="-1.9719293062"><ele>112.61</ele><time>2014-01-08T11:01:18Z</time></trkpt><trkpt lat="51.7532827891" lon="-1.9719359279"><ele>113.57</ele><time>2014-01-08T11:01:47Z</time></trkpt><trkpt lat="51.7532811128" lon="-1.9719413761"><ele>113.57</ele><time>2014-01-08T11:02:13Z</time></trkpt><trkpt lat="51.7532767542" lon="-1.9719453156"><ele>113.57</ele><time>2014-01-08T11:02:44Z</time></trkpt><trkpt lat="51.7532711383" lon="-1.9719460700"><ele>114.05</ele><time>2014-01-08T11:03:23Z</time></trkpt><trkpt lat="51.7532665282" lon="-1.9719566312"><ele>115.01</ele><time>2014-01-08T11:04:04Z</time></trkpt><trkpt lat="51.7532591522" lon="-1.9719588105"><ele>114.53</ele><time>2014-01-08T11:04:36Z</time></trkpt><trkpt lat="51.7532587331" lon="-1.9719588105"><ele>115.01</ele><time>2014-01-08T11:05:04Z</time></trkpt><trkpt lat="51.7532541230" lon="-1.9719623309"><ele>115.50</ele><time>2014-01-08T11:05:33Z</time></trkpt><trkpt lat="51.7532440647" lon="-1.9719701260"><ele>115.50</ele><time>2014-01-08T11:06:11Z</time></trkpt><trkpt lat="51.7532381136" lon="-1.9719801843"><ele>115.50</ele><time>2014-01-08T11:06:45Z</time></trkpt><trkpt lat="51.7532349285" lon="-1.9719816092"><ele>115.98</ele><time>2014-01-08T11:07:15Z</time></trkpt><trkpt lat="51.7532436457" lon="-1.9719717186"><ele>116.46</ele><time>2014-01-08T11:07:37Z</time></trkpt><trkpt lat="51.7532554641" lon="-1.9719481654"><ele>116.46</ele><time>2014-01-08T11:08:01Z</time></trkpt><trkpt lat="51.7532548774" lon="-1.9719401188"><ele>116.46</ele><time>2014-01-08T11:08:25Z</time></trkpt><trkpt lat="51.7532541230" lon="-1.9719406217"><ele>116.46</ele><time>2014-01-08T11:08:46Z</time></trkpt><trkpt lat="51.7532677855" lon="-1.9718956109"><ele>115.98</ele><time>2014-01-08T11:09:00Z</time></trkpt><trkpt lat="51.7532781791" lon="-1.9717723969"><ele>115.98</ele><time>2014-01-08T11:09:05Z</time></trkpt><trkpt lat="51.7532521114" lon="-1.9714494422"><ele>116.46</ele><time>2014-01-08T11:09:20Z</time></trkpt><trkpt lat="51.7532979604" lon="-1.9713749271"><ele>116.94</ele><time>2014-01-08T11:09:35Z</time></trkpt><trkpt lat="51.7533383612" lon="-1.9713217020"><ele>118.38</ele><time>2014-01-08T11:09:43Z</time></trkpt><trkpt lat="51.7534166481" lon="-1.9712287467"><ele>117.42</ele><time>2014-01-08T11:09:57Z</time></trkpt><trkpt lat="51.7534521036" lon="-1.9711854961"><ele>117.42</ele><time>2014-01-08T11:10:03Z</time></trkpt><trkpt lat="51.7536414508" lon="-1.9710014295"><ele>118.38</ele><time>2014-01-08T11:10:19Z</time></trkpt><trkpt lat="51.7536661774" lon="-1.9709770381"><ele>118.86</ele><time>2014-01-08T11:10:21Z</time></trkpt><trkpt lat="51.7537946720" lon="-1.9708432630"><ele>118.86</ele><time>2014-01-08T11:10:36Z</time></trkpt><trkpt lat="51.7537968513" lon="-1.9708299357"><ele>118.86</ele><time>2014-01-08T11:10:39Z</time></trkpt><trkpt lat="51.7538252659" lon="-1.9707752019"><ele>118.86</ele><time>2014-01-08T11:10:46Z</time></trkpt><trkpt lat="51.7539017089" lon="-1.9706435222"><ele>118.86</ele><time>2014-01-08T11:10:58Z</time></trkpt><trkpt lat="51.7539214902" lon="-1.9705290254"><ele>118.86</ele><time>2014-01-08T11:11:14Z</time></trkpt><trkpt lat="51.7539189756" lon="-1.9705174584"><ele>119.34</ele><time>2014-01-08T11:11:28Z</time></trkpt><trkpt lat="51.7539281119" lon="-1.9705006946"><ele>119.34</ele><time>2014-01-08T11:11:33Z</time></trkpt><trkpt lat="51.7540009506" lon="-1.9704394229"><ele>118.86</ele><time>2014-01-08T11:11:45Z</time></trkpt><trkpt lat="51.7540514097" lon="-1.9703500718"><ele>118.86</ele><time>2014-01-08T11:11:56Z</time></trkpt><trkpt lat="51.7541755456" lon="-1.9700885564"><ele>119.82</ele><time>2014-01-08T11:12:13Z</time></trkpt><trkpt lat="51.7543120030" lon="-1.9698132947"><ele>120.30</ele><time>2014-01-08T11:12:32Z</time></trkpt><trkpt lat="51.7543695029" lon="-1.9696197566"><ele>121.26</ele><time>2014-01-08T11:12:47Z</time></trkpt><trkpt lat="51.7544161063" lon="-1.9694760907"><ele>121.74</ele><time>2014-01-08T11:12:57Z</time></trkpt><trkpt lat="51.7544808146" lon="-1.9692880847"><ele>122.22</ele><time>2014-01-08T11:13:09Z</time></trkpt><trkpt lat="51.7545226403" lon="-1.9691892620"><ele>122.22</ele><time>2014-01-08T11:13:24Z</time></trkpt><trkpt lat="51.7545563355" lon="-1.9691149984"><ele>122.22</ele><time>2014-01-08T11:13:40Z</time></trkpt><trkpt lat="51.7546484526" lon="-1.9689116534"><ele>122.71</ele><time>2014-01-08T11:13:56Z</time></trkpt><trkpt lat="51.7547370493" lon="-1.9687186182"><ele>123.19</ele><time>2014-01-08T11:14:10Z</time></trkpt><trkpt lat="51.7547854967" lon="-1.9686015230"><ele>123.19</ele><time>2014-01-08T11:14:20Z</time></trkpt><trkpt lat="51.7548042722" lon="-1.9685568474"><ele>123.67</ele><time>2014-01-08T11:14:23Z</time></trkpt><trkpt lat="51.7549005803" lon="-1.9683481380"><ele>124.15</ele><time>2014-01-08T11:14:39Z</time></trkpt><trkpt lat="51.7549820524" lon="-1.9681855291"><ele>125.11</ele><time>2014-01-08T11:14:53Z</time></trkpt><trkpt lat="51.7550086230" lon="-1.9681351539"><ele>125.11</ele><time>2014-01-08T11:14:57Z</time></trkpt><trkpt lat="51.7551106308" lon="-1.9679242652"><ele>126.07</ele><time>2014-01-08T11:15:14Z</time></trkpt><trkpt lat="51.7552247923" lon="-1.9677016418"><ele>126.07</ele><time>2014-01-08T11:15:31Z</time></trkpt><trkpt lat="51.7553010676" lon="-1.9675171562"><ele>126.55</ele><time>2014-01-08T11:15:45Z</time></trkpt><trkpt lat="51.7553853057" lon="-1.9673159067"><ele>127.03</ele><time>2014-01-08T11:16:02Z</time></trkpt><trkpt lat="51.7554027401" lon="-1.9672729075"><ele>127.03</ele><time>2014-01-08T11:16:05Z</time></trkpt><trkpt lat="51.7554778419" lon="-1.9671072811"><ele>127.99</ele><time>2014-01-08T11:16:18Z</time></trkpt><trkpt lat="51.7555834539" lon="-1.9668952189"><ele>127.99</ele><time>2014-01-08T11:16:36Z</time></trkpt><trkpt lat="51.7556354217" lon="-1.9667537324"><ele>128.47</ele><time>2014-01-08T11:16:47Z</time></trkpt><trkpt lat="51.7556464020" lon="-1.9667170197"><ele>128.95</ele><time>2014-01-08T11:16:50Z</time></trkpt><trkpt lat="51.7557490803" lon="-1.9664550014"><ele>129.92</ele><time>2014-01-08T11:17:09Z</time></trkpt><trkpt lat="51.7558414489" lon="-1.9662820827"><ele>130.40</ele><time>2014-01-08T11:17:24Z</time></trkpt><trkpt lat="51.7559772357" lon="-1.9660536759"><ele>132.32</ele><time>2014-01-08T11:17:43Z</time></trkpt><trkpt lat="51.7560644075" lon="-1.9658748060"><ele>132.80</ele><time>2014-01-08T11:17:58Z</time></trkpt><trkpt lat="51.7561233323" lon="-1.9657520112"><ele>133.28</ele><time>2014-01-08T11:18:09Z</time></trkpt><trkpt lat="51.7562229931" lon="-1.9655589759"><ele>134.24</ele><time>2014-01-08T11:18:27Z</time></trkpt><trkpt lat="51.7562969215" lon="-1.9654006418"><ele>135.20</ele><time>2014-01-08T11:18:40Z</time></trkpt><trkpt lat="51.7563983425" lon="-1.9652209338"><ele>136.16</ele><time>2014-01-08T11:18:56Z</time></trkpt><trkpt lat="51.7565201316" lon="-1.9650263898"><ele>137.13</ele><time>2014-01-08T11:19:13Z</time></trkpt><trkpt lat="51.7566183675" lon="-1.9648594223"><ele>138.09</ele><time>2014-01-08T11:19:30Z</time></trkpt><trkpt lat="51.7567405757" lon="-1.9646998309"><ele>139.53</ele><time>2014-01-08T11:19:47Z</time></trkpt><trkpt lat="51.7568481993" lon="-1.9645802211"><ele>140.49</ele><time>2014-01-08T11:20:03Z</time></trkpt><trkpt lat="51.7569315154" lon="-1.9644337893"><ele>141.93</ele><time>2014-01-08T11:20:18Z</time></trkpt><trkpt lat="51.7570824735" lon="-1.9641978387"><ele>143.85</ele><time>2014-01-08T11:20:39Z</time></trkpt><trkpt lat="51.7571321782" lon="-1.9641363993"><ele>144.34</ele><time>2014-01-08T11:20:49Z</time></trkpt><trkpt lat="51.7571317591" lon="-1.9641289394"><ele>144.82</ele><time>2014-01-08T11:21:02Z</time></trkpt><trkpt lat="51.7571630236" lon="-1.9640809949"><ele>146.74</ele><time>2014-01-08T11:21:20Z</time></trkpt><trkpt lat="51.7571693938" lon="-1.9640586991"><ele>142.89</ele><time>2014-01-08T11:21:22Z</time></trkpt><trkpt lat="51.7571973056" lon="-1.9640094973"><ele>145.30</ele><time>2014-01-08T11:21:39Z</time></trkpt><trkpt lat="51.7572099622" lon="-1.9640578609"><ele>145.78</ele><time>2014-01-08T11:21:48Z</time></trkpt><trkpt lat="51.7572553921" lon="-1.9639861118"><ele>146.26</ele><time>2014-01-08T11:22:00Z</time></trkpt><trkpt lat="51.7572170030" lon="-1.9640621357"><ele>145.30</ele><time>2014-01-08T11:22:15Z</time></trkpt><trkpt lat="51.7572211102" lon="-1.9640312064"><ele>145.30</ele><time>2014-01-08T11:22:25Z</time></trkpt><trkpt lat="51.7572708987" lon="-1.9639989361"><ele>146.26</ele><time>2014-01-08T11:22:37Z</time></trkpt><trkpt lat="51.7572526261" lon="-1.9640140235"><ele>145.78</ele><time>2014-01-08T11:23:04Z</time></trkpt><trkpt lat="51.7572561465" lon="-1.9640255067"><ele>145.30</ele><time>2014-01-08T11:23:18Z</time></trkpt><trkpt lat="51.7572551407" lon="-1.9640131854"><ele>145.78</ele><time>2014-01-08T11:23:43Z</time></trkpt><trkpt lat="51.7572448310" lon="-1.9640075695"><ele>145.78</ele><time>2014-01-08T11:24:01Z</time></trkpt><trkpt lat="51.7572673783" lon="-1.9639218226"><ele>146.74</ele><time>2014-01-08T11:24:06Z</time></trkpt><trkpt lat="51.7572811246" lon="-1.9638728723"><ele>147.22</ele><time>2014-01-08T11:24:10Z</time></trkpt><trkpt lat="51.7573767621" lon="-1.9636519253"><ele>149.14</ele><time>2014-01-08T11:24:20Z</time></trkpt><trkpt lat="51.7574263830" lon="-1.9635106064"><ele>150.10</ele><time>2014-01-08T11:24:31Z</time></trkpt><trkpt lat="51.7574774288" lon="-1.9634711277"><ele>149.62</ele><time>2014-01-08T11:24:36Z</time></trkpt><trkpt lat="51.7575316597" lon="-1.9634979498"><ele>150.10</ele><time>2014-01-08T11:24:48Z</time></trkpt><trkpt lat="51.7575302348" lon="-1.9634897355"><ele>149.62</ele><time>2014-01-08T11:25:04Z</time></trkpt><trkpt lat="51.7575309053" lon="-1.9634890649"><ele>149.14</ele><time>2014-01-08T11:25:24Z</time></trkpt><trkpt lat="51.7575359344" lon="-1.9634679426"><ele>150.58</ele><time>2014-01-08T11:25:36Z</time></trkpt><trkpt lat="51.7575420532" lon="-1.9634653442"><ele>150.58</ele><time>2014-01-08T11:25:53Z</time></trkpt><trkpt lat="51.7575366888" lon="-1.9634428807"><ele>150.10</ele><time>2014-01-08T11:26:06Z</time></trkpt><trkpt lat="51.7575442325" lon="-1.9633425493"><ele>151.54</ele><time>2014-01-08T11:26:20Z</time></trkpt><trkpt lat="51.7575620022" lon="-1.9632599875"><ele>152.03</ele><time>2014-01-08T11:26:39Z</time></trkpt><trkpt lat="51.7576143052" lon="-1.9630824588"><ele>153.95</ele><time>2014-01-08T11:26:55Z</time></trkpt><trkpt lat="51.7576621659" lon="-1.9629886653"><ele>154.43</ele><time>2014-01-08T11:27:07Z</time></trkpt><trkpt lat="51.7577461526" lon="-1.9628130645"><ele>156.35</ele><time>2014-01-08T11:27:24Z</time></trkpt><trkpt lat="51.7577604018" lon="-1.9627714902"><ele>156.83</ele><time>2014-01-08T11:27:27Z</time></trkpt><trkpt lat="51.7578022275" lon="-1.9626995735"><ele>157.79</ele><time>2014-01-08T11:27:32Z</time></trkpt><trkpt lat="51.7578593921" lon="-1.9626180176"><ele>156.83</ele><time>2014-01-08T11:27:37Z</time></trkpt><trkpt lat="51.7579640821" lon="-1.9624060392"><ele>158.75</ele><time>2014-01-08T11:27:51Z</time></trkpt><trkpt lat="51.7580009624" lon="-1.9623397384"><ele>159.24</ele><time>2014-01-08T11:27:56Z</time></trkpt><trkpt lat="51.7580888886" lon="-1.9622116629"><ele>160.68</ele><time>2014-01-08T11:28:11Z</time></trkpt><trkpt lat="51.7581636552" lon="-1.9620661531"><ele>162.12</ele><time>2014-01-08T11:28:24Z</time></trkpt><trkpt lat="51.7582316324" lon="-1.9618892111"><ele>163.08</ele><time>2014-01-08T11:28:36Z</time></trkpt><trkpt lat="51.7582561076" lon="-1.9618484750"><ele>163.56</ele><time>2014-01-08T11:28:39Z</time></trkpt><trkpt lat="51.7582929041" lon="-1.9618342258"><ele>164.04</ele><time>2014-01-08T11:28:43Z</time></trkpt><trkpt lat="51.7583431955" lon="-1.9617292844"><ele>165.00</ele><time>2014-01-08T11:28:54Z</time></trkpt><trkpt lat="51.7583789863" lon="-1.9616493210"><ele>165.48</ele><time>2014-01-08T11:28:59Z</time></trkpt><trkpt lat="51.7584440298" lon="-1.9614826888"><ele>165.96</ele><time>2014-01-08T11:29:12Z</time></trkpt><trkpt lat="51.7584661581" lon="-1.9614457246"><ele>166.45</ele><time>2014-01-08T11:29:15Z</time></trkpt><trkpt lat="51.7584815808" lon="-1.9613911584"><ele>166.45</ele><time>2014-01-08T11:29:18Z</time></trkpt><trkpt lat="51.7585285194" lon="-1.9612621609"><ele>167.89</ele><time>2014-01-08T11:29:30Z</time></trkpt><trkpt lat="51.7585537490" lon="-1.9611880649"><ele>168.37</ele><time>2014-01-08T11:29:35Z</time></trkpt><trkpt lat="51.7585736979" lon="-1.9611294754"><ele>167.89</ele><time>2014-01-08T11:29:39Z</time></trkpt><trkpt lat="51.7586548347" lon="-1.9609887432"><ele>168.37</ele><time>2014-01-08T11:29:51Z</time></trkpt><trkpt lat="51.7586643063" lon="-1.9609323330"><ele>169.33</ele><time>2014-01-08T11:29:55Z</time></trkpt><trkpt lat="51.7587068863" lon="-1.9608389586"><ele>169.81</ele><time>2014-01-08T11:30:02Z</time></trkpt><trkpt lat="51.7587257456" lon="-1.9607994799"><ele>170.29</ele><time>2014-01-08T11:30:06Z</time></trkpt><trkpt lat="51.7587436829" lon="-1.9607509486"><ele>170.29</ele><time>2014-01-08T11:30:10Z</time></trkpt><trkpt lat="51.7587644700" lon="-1.9606987294"><ele>170.77</ele><time>2014-01-08T11:30:14Z</time></trkpt><trkpt lat="51.7587979976" lon="-1.9605675526"><ele>171.25</ele><time>2014-01-08T11:30:24Z</time></trkpt><trkpt lat="51.7588249873" lon="-1.9605018385"><ele>171.25</ele><time>2014-01-08T11:30:29Z</time></trkpt><trkpt lat="51.7588491272" lon="-1.9604279939"><ele>172.21</ele><time>2014-01-08T11:30:34Z</time></trkpt><trkpt lat="51.7588990834" lon="-1.9602468610"><ele>172.69</ele><time>2014-01-08T11:30:45Z</time></trkpt><trkpt lat="51.7589046154" lon="-1.9602357969"><ele>172.69</ele><time>2014-01-08T11:30:46Z</time></trkpt><trkpt lat="51.7589399870" lon="-1.9601031113"><ele>173.17</ele><time>2014-01-08T11:30:56Z</time></trkpt><trkpt lat="51.7589585949" lon="-1.9600590225"><ele>173.17</ele><time>2014-01-08T11:30:59Z</time></trkpt><trkpt lat="51.7589893565" lon="-1.9599601161"><ele>173.66</ele><time>2014-01-08T11:31:05Z</time></trkpt><trkpt lat="51.7590341158" lon="-1.9598196354"><ele>174.14</ele><time>2014-01-08T11:31:15Z</time></trkpt><trkpt lat="51.7590650450" lon="-1.9597550109"><ele>173.66</ele><time>2014-01-08T11:31:20Z</time></trkpt><trkpt lat="51.7591125704" lon="-1.9596074056"><ele>174.14</ele><time>2014-01-08T11:31:31Z</time></trkpt><trkpt lat="51.7591245566" lon="-1.9595119357"><ele>174.14</ele><time>2014-01-08T11:31:36Z</time></trkpt><trkpt lat="51.7591575813" lon="-1.9594392646"><ele>174.62</ele><time>2014-01-08T11:31:42Z</time></trkpt><trkpt lat="51.7591848224" lon="-1.9593660068"><ele>175.10</ele><time>2014-01-08T11:31:52Z</time></trkpt><trkpt lat="51.7592058610" lon="-1.9593016338"><ele>175.58</ele><time>2014-01-08T11:31:56Z</time></trkpt><trkpt lat="51.7592103872" lon="-1.9592728000"><ele>175.10</ele><time>2014-01-08T11:31:58Z</time></trkpt><trkpt lat="51.7592524644" lon="-1.9591999613"><ele>175.58</ele><time>2014-01-08T11:32:10Z</time></trkpt><trkpt lat="51.7592524644" lon="-1.9592006318"><ele>175.10</ele><time>2014-01-08T11:32:11Z</time></trkpt><trkpt lat="51.7592435796" lon="-1.9592725486"><ele>175.58</ele><time>2014-01-08T11:32:22Z</time></trkpt><trkpt lat="51.7592124827" lon="-1.9593075011"><ele>175.58</ele><time>2014-01-08T11:32:46Z</time></trkpt><trkpt lat="51.7592041008" lon="-1.9593145419"><ele>175.10</ele><time>2014-01-08T11:33:07Z</time></trkpt><trkpt lat="51.7592113093" lon="-1.9593072496"><ele>177.50</ele><time>2014-01-08T11:33:22Z</time></trkpt><trkpt lat="51.7592193559" lon="-1.9592346624"><ele>176.06</ele><time>2014-01-08T11:33:26Z</time></trkpt><trkpt lat="51.7592335213" lon="-1.9591718819"><ele>176.06</ele><time>2014-01-08T11:33:31Z</time></trkpt><trkpt lat="51.7592454236" lon="-1.9591246080"><ele>175.58</ele><time>2014-01-08T11:33:33Z</time></trkpt><trkpt lat="51.7593320087" lon="-1.9588182494"><ele>175.58</ele><time>2014-01-08T11:33:45Z</time></trkpt><trkpt lat="51.7593812943" lon="-1.9586801995"><ele>176.06</ele><time>2014-01-08T11:33:55Z</time></trkpt><trkpt lat="51.7594472598" lon="-1.9584640302"><ele>176.06</ele><time>2014-01-08T11:34:05Z</time></trkpt><trkpt lat="51.7595256306" lon="-1.9582460169"><ele>176.54</ele><time>2014-01-08T11:34:17Z</time></trkpt><trkpt lat="51.7595942784" lon="-1.9580802228"><ele>176.54</ele><time>2014-01-08T11:34:31Z</time></trkpt><trkpt lat="51.7596250400" lon="-1.9580020197"><ele>176.06</ele><time>2014-01-08T11:34:47Z</time></trkpt><trkpt lat="51.7597204261" lon="-1.9579046220"><ele>176.54</ele><time>2014-01-08T11:35:00Z</time></trkpt><trkpt lat="51.7598290555" lon="-1.9578655623"><ele>176.54</ele><time>2014-01-08T11:35:10Z</time></trkpt><trkpt lat="51.7599290516" lon="-1.9577831682"><ele>176.06</ele><time>2014-01-08T11:35:22Z</time></trkpt><trkpt lat="51.7599845398" lon="-1.9577795640"><ele>176.54</ele><time>2014-01-08T11:35:30Z</time></trkpt><trkpt lat="51.7600795906" lon="-1.9577922206"><ele>176.54</ele><time>2014-01-08T11:35:42Z</time></trkpt><trkpt lat="51.7601328157" lon="-1.9577839226"><ele>177.02</ele><time>2014-01-08T11:35:50Z</time></trkpt><trkpt lat="51.7602716200" lon="-1.9577270094"><ele>177.02</ele><time>2014-01-08T11:36:02Z</time></trkpt><trkpt lat="51.7604018748" lon="-1.9576771371"><ele>177.50</ele><time>2014-01-08T11:36:14Z</time></trkpt><trkpt lat="51.7604199797" lon="-1.9576949067"><ele>177.02</ele><time>2014-01-08T11:36:18Z</time></trkpt><trkpt lat="51.7604729533" lon="-1.9576668274"><ele>177.98</ele><time>2014-01-08T11:36:24Z</time></trkpt><trkpt lat="51.7605632264" lon="-1.9576576073"><ele>177.50</ele><time>2014-01-08T11:36:33Z</time></trkpt><trkpt lat="51.7607035395" lon="-1.9577182084"><ele>178.94</ele><time>2014-01-08T11:36:45Z</time></trkpt><trkpt lat="51.7607381567" lon="-1.9577249978"><ele>178.46</ele><time>2014-01-08T11:36:48Z</time></trkpt><trkpt lat="51.7607913818" lon="-1.9577322062"><ele>177.98</ele><time>2014-01-08T11:36:53Z</time></trkpt><trkpt lat="51.7608870193" lon="-1.9576964155"><ele>177.98</ele><time>2014-01-08T11:37:03Z</time></trkpt><trkpt lat="51.7608954851" lon="-1.9576985110"><ele>177.98</ele><time>2014-01-08T11:37:04Z</time></trkpt><trkpt lat="51.7609658092" lon="-1.9576866925"><ele>177.98</ele><time>2014-01-08T11:37:10Z</time></trkpt><trkpt lat="51.7610260751" lon="-1.9576902129"><ele>178.94</ele><time>2014-01-08T11:37:15Z</time></trkpt><trkpt lat="51.7611145042" lon="-1.9577011932"><ele>178.94</ele><time>2014-01-08T11:37:25Z</time></trkpt><trkpt lat="51.7612000834" lon="-1.9576861896"><ele>178.46</ele><time>2014-01-08T11:37:34Z</time></trkpt><trkpt lat="51.7612149194" lon="-1.9576866925"><ele>178.94</ele><time>2014-01-08T11:37:35Z</time></trkpt><trkpt lat="51.7612486985" lon="-1.9576838426"><ele>178.94</ele><time>2014-01-08T11:37:38Z</time></trkpt><trkpt lat="51.7612768617" lon="-1.9576781429"><ele>178.46</ele><time>2014-01-08T11:37:41Z</time></trkpt><trkpt lat="51.7613134068" lon="-1.9576787297"><ele>178.46</ele><time>2014-01-08T11:37:45Z</time></trkpt><trkpt lat="51.7613383010" lon="-1.9576731976"><ele>178.94</ele><time>2014-01-08T11:37:47Z</time></trkpt><trkpt lat="51.7613864131" lon="-1.9576437771"><ele>179.42</ele><time>2014-01-08T11:37:52Z</time></trkpt><trkpt lat="51.7615128122" lon="-1.9576312881"><ele>178.94</ele><time>2014-01-08T11:38:03Z</time></trkpt><trkpt lat="51.7615276482" lon="-1.9576376583"><ele>179.42</ele><time>2014-01-08T11:38:05Z</time></trkpt><trkpt lat="51.7616633512" lon="-1.9576266780"><ele>179.42</ele><time>2014-01-08T11:38:17Z</time></trkpt><trkpt lat="51.7616701405" lon="-1.9576274324"><ele>179.90</ele><time>2014-01-08T11:38:18Z</time></trkpt><trkpt lat="51.7617915943" lon="-1.9576154463"><ele>179.90</ele><time>2014-01-08T11:38:28Z</time></trkpt><trkpt lat="51.7618117947" lon="-1.9575991854"><ele>179.42</ele><time>2014-01-08T11:38:31Z</time></trkpt><trkpt lat="51.7618936021" lon="-1.9575819187"><ele>179.42</ele><time>2014-01-08T11:38:39Z</time></trkpt><trkpt lat="51.7620128766" lon="-1.9575502351"><ele>179.90</ele><time>2014-01-08T11:38:51Z</time></trkpt><trkpt lat="51.7620465718" lon="-1.9575516600"><ele>180.38</ele><time>2014-01-08T11:38:58Z</time></trkpt><trkpt lat="51.7621490825" lon="-1.9575528335"><ele>180.38</ele><time>2014-01-08T11:39:08Z</time></trkpt><trkpt lat="51.7621599790" lon="-1.9575530011"><ele>180.38</ele><time>2014-01-08T11:39:09Z</time></trkpt><trkpt lat="51.7622013018" lon="-1.9575506542"><ele>180.38</ele><time>2014-01-08T11:39:13Z</time></trkpt><trkpt lat="51.7622215860" lon="-1.9575493969"><ele>180.38</ele><time>2014-01-08T11:39:15Z</time></trkpt><trkpt lat="51.7622646689" lon="-1.9575429428"><ele>180.87</ele><time>2014-01-08T11:39:20Z</time></trkpt><trkpt lat="51.7624129448" lon="-1.9575212337"><ele>180.87</ele><time>2014-01-08T11:39:34Z</time></trkpt><trkpt lat="51.7624900583" lon="-1.9574951660"><ele>180.87</ele><time>2014-01-08T11:39:41Z</time></trkpt><trkpt lat="51.7625758890" lon="-1.9574678410"><ele>180.87</ele><time>2014-01-08T11:39:51Z</time></trkpt><trkpt lat="51.7625944130" lon="-1.9574706908"><ele>180.87</ele><time>2014-01-08T11:39:54Z</time></trkpt><trkpt lat="51.7626455426" lon="-1.9574442878"><ele>181.35</ele><time>2014-01-08T11:39:59Z</time></trkpt><trkpt lat="51.7627236620" lon="-1.9574364927"><ele>180.87</ele><time>2014-01-08T11:40:07Z</time></trkpt><trkpt lat="51.7627788149" lon="-1.9574266858"><ele>181.35</ele><time>2014-01-08T11:40:13Z</time></trkpt><trkpt lat="51.7628597002" lon="-1.9574388396"><ele>181.35</ele><time>2014-01-08T11:40:19Z</time></trkpt><trkpt lat="51.7629462015" lon="-1.9574352354"><ele>181.83</ele><time>2014-01-08T11:40:27Z</time></trkpt><trkpt lat="51.7630160227" lon="-1.9574172981"><ele>182.31</ele><time>2014-01-08T11:40:37Z</time></trkpt><trkpt lat="51.7630230635" lon="-1.9574108440"><ele>181.83</ele><time>2014-01-08T11:40:38Z</time></trkpt><trkpt lat="51.7630837485" lon="-1.9574010372"><ele>182.31</ele><time>2014-01-08T11:40:44Z</time></trkpt><trkpt lat="51.7631149292" lon="-1.9573748857"><ele>182.79</ele><time>2014-01-08T11:40:47Z</time></trkpt><trkpt lat="51.7631823197" lon="-1.9573846087"><ele>181.83</ele><time>2014-01-08T11:40:54Z</time></trkpt><trkpt lat="51.7632312700" lon="-1.9573830999"><ele>182.31</ele><time>2014-01-08T11:40:59Z</time></trkpt><trkpt lat="51.7633031029" lon="-1.9573779870"><ele>181.83</ele><time>2014-01-08T11:41:06Z</time></trkpt><trkpt lat="51.7633605190" lon="-1.9573680125"><ele>181.83</ele><time>2014-01-08T11:41:12Z</time></trkpt><trkpt lat="51.7634021770" lon="-1.9573721197"><ele>182.79</ele><time>2014-01-08T11:41:16Z</time></trkpt><trkpt lat="51.7635213677" lon="-1.9573743828"><ele>183.27</ele><time>2014-01-08T11:41:27Z</time></trkpt><trkpt lat="51.7635522969" lon="-1.9573661685"><ele>183.27</ele><time>2014-01-08T11:41:30Z</time></trkpt><trkpt lat="51.7636612616" lon="-1.9573508296"><ele>183.75</ele><time>2014-01-08T11:41:41Z</time></trkpt><trkpt lat="51.7637221143" lon="-1.9573481474"><ele>183.27</ele><time>2014-01-08T11:41:47Z</time></trkpt><trkpt lat="51.7637610901" lon="-1.9573463872"><ele>183.75</ele><time>2014-01-08T11:41:51Z</time></trkpt><trkpt lat="51.7638639361" lon="-1.9573497400"><ele>183.75</ele><time>2014-01-08T11:42:02Z</time></trkpt><trkpt lat="51.7638819572" lon="-1.9573471416"><ele>183.75</ele><time>2014-01-08T11:42:04Z</time></trkpt><trkpt lat="51.7639437318" lon="-1.9573307130"><ele>183.75</ele><time>2014-01-08T11:42:10Z</time></trkpt><trkpt lat="51.7639852222" lon="-1.9573421963"><ele>183.75</ele><time>2014-01-08T11:42:15Z</time></trkpt><trkpt lat="51.7640431412" lon="-1.9573083334"><ele>183.27</ele><time>2014-01-08T11:42:21Z</time></trkpt><trkpt lat="51.7641029041" lon="-1.9572875462"><ele>183.75</ele><time>2014-01-08T11:42:26Z</time></trkpt><trkpt lat="51.7641200870" lon="-1.9572836906"><ele>183.27</ele><time>2014-01-08T11:42:28Z</time></trkpt><trkpt lat="51.7641767487" lon="-1.9572790805"><ele>183.75</ele><time>2014-01-08T11:42:33Z</time></trkpt><trkpt lat="51.7641962785" lon="-1.9572815113"><ele>183.75</ele><time>2014-01-08T11:42:35Z</time></trkpt><trkpt lat="51.7642407864" lon="-1.9572944194"><ele>184.23</ele><time>2014-01-08T11:42:39Z</time></trkpt><trkpt lat="51.7642614059" lon="-1.9572888035"><ele>184.23</ele><time>2014-01-08T11:42:41Z</time></trkpt><trkpt lat="51.7643051594" lon="-1.9572868757"><ele>184.23</ele><time>2014-01-08T11:42:45Z</time></trkpt><trkpt lat="51.7643741425" lon="-1.9572804216"><ele>183.75</ele><time>2014-01-08T11:42:52Z</time></trkpt><trkpt lat="51.7644260265" lon="-1.9572606403"><ele>184.23</ele><time>2014-01-08T11:42:57Z</time></trkpt><trkpt lat="51.7644810956" lon="-1.9572757278"><ele>184.23</ele><time>2014-01-08T11:43:03Z</time></trkpt><trkpt lat="51.7645505816" lon="-1.9572684355"><ele>183.75</ele><time>2014-01-08T11:43:09Z</time></trkpt><trkpt lat="51.7646158766" lon="-1.9572643284"><ele>184.71</ele><time>2014-01-08T11:43:16Z</time></trkpt><trkpt lat="51.7646694370" lon="-1.9572525937"><ele>184.23</ele><time>2014-01-08T11:43:22Z</time></trkpt><trkpt lat="51.7647048924" lon="-1.9572528452"><ele>184.23</ele><time>2014-01-08T11:43:26Z</time></trkpt><trkpt lat="51.7648044694" lon="-1.9572235923"><ele>185.19</ele><time>2014-01-08T11:43:35Z</time></trkpt><trkpt lat="51.7649007775" lon="-1.9572358299"><ele>185.19</ele><time>2014-01-08T11:43:46Z</time></trkpt><trkpt lat="51.7649521586" lon="-1.9572271965"><ele>185.67</ele><time>2014-01-08T11:43:51Z</time></trkpt><trkpt lat="51.7650081497" lon="-1.9572077505"><ele>185.67</ele><time>2014-01-08T11:43:57Z</time></trkpt><trkpt lat="51.7651171144" lon="-1.9571962673"><ele>185.67</ele><time>2014-01-08T11:44:08Z</time></trkpt><trkpt lat="51.7651379853" lon="-1.9571898971"><ele>186.15</ele><time>2014-01-08T11:44:10Z</time></trkpt><trkpt lat="51.7651903722" lon="-1.9571842812"><ele>185.67</ele><time>2014-01-08T11:44:15Z</time></trkpt><trkpt lat="51.7652344611" lon="-1.9571548607"><ele>186.15</ele><time>2014-01-08T11:44:20Z</time></trkpt><trkpt lat="51.7653036118" lon="-1.9571570400"><ele>185.67</ele><time>2014-01-08T11:44:27Z</time></trkpt><trkpt lat="51.7653544061" lon="-1.9571437128"><ele>186.63</ele><time>2014-01-08T11:44:32Z</time></trkpt><trkpt lat="51.7654304300" lon="-1.9571523461"><ele>186.15</ele><time>2014-01-08T11:44:39Z</time></trkpt><trkpt lat="51.7655205354" lon="-1.9571497478"><ele>186.15</ele><time>2014-01-08T11:44:50Z</time></trkpt><trkpt lat="51.7655725870" lon="-1.9571536034"><ele>186.63</ele><time>2014-01-08T11:45:03Z</time></trkpt><trkpt lat="51.7656445038" lon="-1.9571463950"><ele>186.63</ele><time>2014-01-08T11:45:09Z</time></trkpt><trkpt lat="51.7656733375" lon="-1.9571553636"><ele>186.63</ele><time>2014-01-08T11:45:12Z</time></trkpt><trkpt lat="51.7656962201" lon="-1.9571477361"><ele>187.11</ele><time>2014-01-08T11:45:14Z</time></trkpt><trkpt lat="51.7657336872" lon="-1.9571624044"><ele>187.11</ele><time>2014-01-08T11:45:18Z</time></trkpt><trkpt lat="51.7658223677" lon="-1.9571573753"><ele>187.11</ele><time>2014-01-08T11:45:26Z</time></trkpt><trkpt lat="51.7658480164" lon="-1.9571467303"><ele>187.11</ele><time>2014-01-08T11:45:29Z</time></trkpt><trkpt lat="51.7658747546" lon="-1.9571422040"><ele>187.11</ele><time>2014-01-08T11:45:32Z</time></trkpt><trkpt lat="51.7659291532" lon="-1.9571466465"><ele>187.11</ele><time>2014-01-08T11:45:37Z</time></trkpt><trkpt lat="51.7659521196" lon="-1.9571460597"><ele>187.11</ele><time>2014-01-08T11:45:39Z</time></trkpt><trkpt lat="51.7659868207" lon="-1.9571433775"><ele>187.59</ele><time>2014-01-08T11:45:43Z</time></trkpt><trkpt lat="51.7660628445" lon="-1.9571497478"><ele>186.63</ele><time>2014-01-08T11:45:49Z</time></trkpt><trkpt lat="51.7661186680" lon="-1.9571523461"><ele>187.11</ele><time>2014-01-08T11:45:55Z</time></trkpt><trkpt lat="51.7661708035" lon="-1.9571303017"><ele>187.11</ele><time>2014-01-08T11:46:00Z</time></trkpt><trkpt lat="51.7662267108" lon="-1.9571455568"><ele>186.63</ele><time>2014-01-08T11:46:05Z</time></trkpt><trkpt lat="51.7662823666" lon="-1.9571295474"><ele>187.11</ele><time>2014-01-08T11:46:11Z</time></trkpt><trkpt lat="51.7663406208" lon="-1.9571203273"><ele>187.59</ele><time>2014-01-08T11:46:17Z</time></trkpt><trkpt lat="51.7663665209" lon="-1.9571272004"><ele>187.59</ele><time>2014-01-08T11:46:19Z</time></trkpt><trkpt lat="51.7664190754" lon="-1.9571432937"><ele>188.56</ele><time>2014-01-08T11:46:23Z</time></trkpt><trkpt lat="51.7664486635" lon="-1.9571339898"><ele>187.11</ele><time>2014-01-08T11:46:26Z</time></trkpt><trkpt lat="51.7664923333" lon="-1.9571402762"><ele>187.59</ele><time>2014-01-08T11:46:30Z</time></trkpt><trkpt lat="51.7665970232" lon="-1.9571468141"><ele>188.08</ele><time>2014-01-08T11:46:40Z</time></trkpt><trkpt lat="51.7666028906" lon="-1.9571509212"><ele>188.08</ele><time>2014-01-08T11:46:41Z</time></trkpt><trkpt lat="51.7666235100" lon="-1.9571475685"><ele>187.59</ele><time>2014-01-08T11:46:43Z</time></trkpt><trkpt lat="51.7666573729" lon="-1.9571450539"><ele>188.08</ele><time>2014-01-08T11:46:48Z</time></trkpt><trkpt lat="51.7667250987" lon="-1.9571432937"><ele>188.08</ele><time>2014-01-08T11:46:54Z</time></trkpt><trkpt lat="51.7667686846" lon="-1.9571465626"><ele>187.59</ele><time>2014-01-08T11:46:58Z</time></trkpt><trkpt lat="51.7668555211" lon="-1.9571692776"><ele>188.08</ele><time>2014-01-08T11:47:05Z</time></trkpt><trkpt lat="51.7669450399" lon="-1.9571479876"><ele>188.08</ele><time>2014-01-08T11:47:13Z</time></trkpt><trkpt lat="51.7670045514" lon="-1.9571283739"><ele>188.08</ele><time>2014-01-08T11:47:20Z</time></trkpt><trkpt lat="51.7670264281" lon="-1.9571279548"><ele>188.56</ele><time>2014-01-08T11:47:22Z</time></trkpt><trkpt lat="51.7670747079" lon="-1.9571309723"><ele>187.59</ele><time>2014-01-08T11:47:28Z</time></trkpt><trkpt lat="51.7671277653" lon="-1.9571375102"><ele>188.08</ele><time>2014-01-08T11:47:33Z</time></trkpt><trkpt lat="51.7672185414" lon="-1.9571349118"><ele>188.08</ele><time>2014-01-08T11:47:42Z</time></trkpt><trkpt lat="51.7672316171" lon="-1.9571380969"><ele>188.08</ele><time>2014-01-08T11:47:43Z</time></trkpt><trkpt lat="51.7673226446" lon="-1.9571104366"><ele>188.56</ele><time>2014-01-08T11:47:52Z</time></trkpt><trkpt lat="51.7673375644" lon="-1.9571212493"><ele>188.56</ele><time>2014-01-08T11:47:54Z</time></trkpt><trkpt lat="51.7673991714" lon="-1.9571259432"><ele>188.08</ele><time>2014-01-08T11:48:02Z</time></trkpt><trkpt lat="51.7674643826" lon="-1.9571310561"><ele>188.56</ele><time>2014-01-08T11:48:08Z</time></trkpt><trkpt lat="51.7675192840" lon="-1.9571161363"><ele>188.08</ele><time>2014-01-08T11:48:14Z</time></trkpt><trkpt lat="51.7675571702" lon="-1.9571016356"><ele>188.08</ele><time>2014-01-08T11:48:18Z</time></trkpt><trkpt lat="51.7675875966" lon="-1.9571137056"><ele>188.56</ele><time>2014-01-08T11:48:21Z</time></trkpt><trkpt lat="51.7676362954" lon="-1.9571323134"><ele>188.56</ele><time>2014-01-08T11:48:26Z</time></trkpt><trkpt lat="51.7676755227" lon="-1.9571337383"><ele>188.56</ele><time>2014-01-08T11:48:30Z</time></trkpt><trkpt lat="51.7677034345" lon="-1.9571356662"><ele>188.56</ele><time>2014-01-08T11:48:33Z</time></trkpt><trkpt lat="51.7677507922" lon="-1.9571618177"><ele>188.56</ele><time>2014-01-08T11:48:37Z</time></trkpt><trkpt lat="51.7677735072" lon="-1.9571687747"><ele>188.56</ele><time>2014-01-08T11:48:39Z</time></trkpt><trkpt lat="51.7678939551" lon="-1.9571842812"><ele>188.08</ele><time>2014-01-08T11:48:50Z</time></trkpt><trkpt lat="51.7679127306" lon="-1.9571960997"><ele>188.56</ele><time>2014-01-08T11:48:53Z</time></trkpt><trkpt lat="51.7680169176" lon="-1.9571994524"><ele>188.08</ele><time>2014-01-08T11:49:05Z</time></trkpt><trkpt lat="51.7680610064" lon="-1.9572002906"><ele>188.08</ele><time>2014-01-08T11:49:10Z</time></trkpt><trkpt lat="51.7680853140" lon="-1.9571981952"><ele>188.08</ele><time>2014-01-08T11:49:13Z</time></trkpt><trkpt lat="51.7681545485" lon="-1.9572056551"><ele>188.08</ele><time>2014-01-08T11:49:19Z</time></trkpt><trkpt lat="51.7681962065" lon="-1.9572108518"><ele>188.08</ele><time>2014-01-08T11:49:24Z</time></trkpt><trkpt lat="51.7682603281" lon="-1.9572136179"><ele>187.59</ele><time>2014-01-08T11:49:30Z</time></trkpt><trkpt lat="51.7683148943" lon="-1.9572033081"><ele>187.59</ele><time>2014-01-08T11:49:36Z</time></trkpt><trkpt lat="51.7683828715" lon="-1.9571740553"><ele>187.11</ele><time>2014-01-08T11:49:44Z</time></trkpt><trkpt lat="51.7684532795" lon="-1.9571588002"><ele>187.11</ele><time>2014-01-08T11:49:56Z</time></trkpt><trkpt lat="51.7684614100" lon="-1.9571600575"><ele>187.11</ele><time>2014-01-08T11:50:17Z</time></trkpt><trkpt lat="51.7685062531" lon="-1.9571980275"><ele>187.11</ele><time>2014-01-08T11:50:22Z</time></trkpt><trkpt lat="51.7685180716" lon="-1.9573015440"><ele>187.11</ele><time>2014-01-08T11:50:36Z</time></trkpt><trkpt lat="51.7685104441" lon="-1.9573217444"><ele>187.11</ele><time>2014-01-08T11:50:55Z</time></trkpt><trkpt lat="51.7685439717" lon="-1.9573979359"><ele>186.63</ele><time>2014-01-08T11:51:09Z</time></trkpt><trkpt lat="51.7686271202" lon="-1.9576251693"><ele>185.19</ele><time>2014-01-08T11:51:25Z</time></trkpt><trkpt lat="51.7686484102" lon="-1.9577562623"><ele>183.27</ele><time>2014-01-08T11:51:40Z</time></trkpt><trkpt lat="51.7686391901" lon="-1.9578852598"><ele>180.87</ele><time>2014-01-08T11:51:53Z</time></trkpt><trkpt lat="51.7686533555" lon="-1.9579801429"><ele>180.38</ele><time>2014-01-08T11:52:03Z</time></trkpt><trkpt lat="51.7686589714" lon="-1.9582486153"><ele>177.50</ele><time>2014-01-08T11:52:21Z</time></trkpt><trkpt lat="51.7686590552" lon="-1.9584669638"><ele>176.54</ele><time>2014-01-08T11:52:33Z</time></trkpt><trkpt lat="51.7686562892" lon="-1.9585481845"><ele>177.02</ele><time>2014-01-08T11:52:38Z</time></trkpt><trkpt lat="51.7686540261" lon="-1.9587328378"><ele>177.02</ele><time>2014-01-08T11:52:52Z</time></trkpt><trkpt lat="51.7686704546" lon="-1.9587263837"><ele>177.02</ele><time>2014-01-08T11:53:12Z</time></trkpt><trkpt lat="51.7686660122" lon="-1.9587121345"><ele>177.98</ele><time>2014-01-08T11:53:37Z</time></trkpt><trkpt lat="51.7687029764" lon="-1.9588033296"><ele>178.46</ele><time>2014-01-08T11:53:51Z</time></trkpt><trkpt lat="51.7687265296" lon="-1.9588466641"><ele>179.42</ele><time>2014-01-08T11:54:02Z</time></trkpt><trkpt lat="51.7687264457" lon="-1.9588973746"><ele>178.46</ele><time>2014-01-08T11:54:07Z</time></trkpt><trkpt lat="51.7687520944" lon="-1.9589861389"><ele>179.42</ele><time>2014-01-08T11:54:13Z</time></trkpt><trkpt lat="51.7687593866" lon="-1.9590393640"><ele>179.90</ele><time>2014-01-08T11:54:16Z</time></trkpt><trkpt lat="51.7687784135" lon="-1.9593395200"><ele>181.35</ele><time>2014-01-08T11:54:34Z</time></trkpt><trkpt lat="51.7687936686" lon="-1.9596038014"><ele>182.31</ele><time>2014-01-08T11:54:50Z</time></trkpt><trkpt lat="51.7688103486" lon="-1.9597955793"><ele>182.79</ele><time>2014-01-08T11:55:02Z</time></trkpt><trkpt lat="51.7688481510" lon="-1.9600461982"><ele>183.75</ele><time>2014-01-08T11:55:18Z</time></trkpt><trkpt lat="51.7688941676" lon="-1.9602842443"><ele>184.71</ele><time>2014-01-08T11:55:34Z</time></trkpt><trkpt lat="51.7689318862" lon="-1.9604939595"><ele>185.67</ele><time>2014-01-08T11:55:47Z</time></trkpt><trkpt lat="51.7689937446" lon="-1.9607556425"><ele>186.15</ele><time>2014-01-08T11:56:03Z</time></trkpt><trkpt lat="51.7690406833" lon="-1.9609436486"><ele>185.67</ele><time>2014-01-08T11:56:15Z</time></trkpt><trkpt lat="51.7690592073" lon="-1.9610597380"><ele>185.67</ele><time>2014-01-08T11:56:22Z</time></trkpt><trkpt lat="51.7690755520" lon="-1.9611420482"><ele>185.67</ele><time>2014-01-08T11:56:28Z</time></trkpt><trkpt lat="51.7691084929" lon="-1.9612627476"><ele>186.63</ele><time>2014-01-08T11:56:34Z</time></trkpt><trkpt lat="51.7691167071" lon="-1.9613021426"><ele>185.67</ele><time>2014-01-08T11:56:37Z</time></trkpt><trkpt lat="51.7691359017" lon="-1.9613841176"><ele>186.15</ele><time>2014-01-08T11:56:42Z</time></trkpt><trkpt lat="51.7691541743" lon="-1.9614613988"><ele>186.15</ele><time>2014-01-08T11:56:46Z</time></trkpt><trkpt lat="51.7691684235" lon="-1.9615308009"><ele>185.67</ele><time>2014-01-08T11:56:50Z</time></trkpt><trkpt lat="51.7691809125" lon="-1.9615817629"><ele>185.67</ele><time>2014-01-08T11:56:53Z</time></trkpt><trkpt lat="51.7692008615" lon="-1.9616726227"><ele>185.67</ele><time>2014-01-08T11:56:59Z</time></trkpt><trkpt lat="51.7692317907" lon="-1.9617871195"><ele>186.63</ele><time>2014-01-08T11:57:05Z</time></trkpt><trkpt lat="51.7692569364" lon="-1.9619132672"><ele>186.15</ele><time>2014-01-08T11:57:12Z</time></trkpt><trkpt lat="51.7692636419" lon="-1.9619440287"><ele>185.67</ele><time>2014-01-08T11:57:14Z</time></trkpt><trkpt lat="51.7692762148" lon="-1.9620232377"><ele>186.15</ele><time>2014-01-08T11:57:18Z</time></trkpt><trkpt lat="51.7692997679" lon="-1.9621306937"><ele>185.19</ele><time>2014-01-08T11:57:25Z</time></trkpt><trkpt lat="51.7693168670" lon="-1.9622394908"><ele>185.67</ele><time>2014-01-08T11:57:32Z</time></trkpt><trkpt lat="51.7693348043" lon="-1.9623429235"><ele>185.19</ele><time>2014-01-08T11:57:38Z</time></trkpt><trkpt lat="51.7693684995" lon="-1.9624677300"><ele>185.67</ele><time>2014-01-08T11:57:44Z</time></trkpt><trkpt lat="51.7693843413" lon="-1.9625804666"><ele>184.71</ele><time>2014-01-08T11:57:51Z</time></trkpt><trkpt lat="51.7693927232" lon="-1.9626253098"><ele>184.23</ele><time>2014-01-08T11:57:53Z</time></trkpt><trkpt lat="51.7694059666" lon="-1.9626901019"><ele>184.23</ele><time>2014-01-08T11:57:57Z</time></trkpt><trkpt lat="51.7694385722" lon="-1.9627978932"><ele>183.75</ele><time>2014-01-08T11:58:04Z</time></trkpt><trkpt lat="51.7694708426" lon="-1.9629346021"><ele>183.75</ele><time>2014-01-08T11:58:11Z</time></trkpt><trkpt lat="51.7694984190" lon="-1.9630578160"><ele>183.75</ele><time>2014-01-08T11:58:18Z</time></trkpt><trkpt lat="51.7695339583" lon="-1.9631696306"><ele>183.75</ele><time>2014-01-08T11:58:25Z</time></trkpt><trkpt lat="51.7695389036" lon="-1.9632096123"><ele>182.79</ele><time>2014-01-08T11:58:27Z</time></trkpt><trkpt lat="51.7695483752" lon="-1.9632726442"><ele>184.71</ele><time>2014-01-08T11:58:31Z</time></trkpt><trkpt lat="51.7695583496" lon="-1.9633383583"><ele>183.75</ele><time>2014-01-08T11:58:34Z</time></trkpt><trkpt lat="51.7695774604" lon="-1.9634101912"><ele>184.23</ele><time>2014-01-08T11:58:39Z</time></trkpt><trkpt lat="51.7696076352" lon="-1.9635230117"><ele>184.71</ele><time>2014-01-08T11:58:46Z</time></trkpt><trkpt lat="51.7696333677" lon="-1.9636296295"><ele>184.71</ele><time>2014-01-08T11:58:52Z</time></trkpt><trkpt lat="51.7696717568" lon="-1.9638452120"><ele>185.67</ele><time>2014-01-08T11:59:04Z</time></trkpt><trkpt lat="51.7696962319" lon="-1.9639711920"><ele>185.67</ele><time>2014-01-08T11:59:14Z</time></trkpt><trkpt lat="51.7697411589" lon="-1.9641182944"><ele>186.63</ele><time>2014-01-08T11:59:23Z</time></trkpt><trkpt lat="51.7698213737" lon="-1.9642440230"><ele>186.15</ele><time>2014-01-08T11:59:34Z</time></trkpt><trkpt lat="51.7698272411" lon="-1.9642855972"><ele>186.15</ele><time>2014-01-08T11:59:37Z</time></trkpt><trkpt lat="51.7698549014" lon="-1.9643370621"><ele>186.15</ele><time>2014-01-08T11:59:51Z</time></trkpt><trkpt lat="51.7698581703" lon="-1.9643452764"><ele>186.15</ele><time>2014-01-08T11:59:55Z</time></trkpt><trkpt lat="51.7698834836" lon="-1.9645002577"><ele>184.71</ele><time>2014-01-08T12:00:03Z</time></trkpt><trkpt lat="51.7699061148" lon="-1.9646867551"><ele>185.19</ele><time>2014-01-08T12:00:12Z</time></trkpt><trkpt lat="51.7699099705" lon="-1.9647049438"><ele>184.71</ele><time>2014-01-08T12:00:15Z</time></trkpt><trkpt lat="51.7699509580" lon="-1.9648786169"><ele>184.23</ele><time>2014-01-08T12:00:24Z</time></trkpt><trkpt lat="51.7699784506" lon="-1.9649606757"><ele>184.23</ele><time>2014-01-08T12:00:29Z</time></trkpt><trkpt lat="51.7699875869" lon="-1.9649939518"><ele>184.23</ele><time>2014-01-08T12:00:31Z</time></trkpt><trkpt lat="51.7700033449" lon="-1.9650789443"><ele>184.23</ele><time>2014-01-08T12:00:36Z</time></trkpt><trkpt lat="51.7700313404" lon="-1.9652466662"><ele>183.27</ele><time>2014-01-08T12:00:46Z</time></trkpt><trkpt lat="51.7700334359" lon="-1.9652704708"><ele>183.75</ele><time>2014-01-08T12:00:47Z</time></trkpt><trkpt lat="51.7700488586" lon="-1.9653872307"><ele>183.75</ele><time>2014-01-08T12:00:54Z</time></trkpt><trkpt lat="51.7700624373" lon="-1.9654833712"><ele>183.75</ele><time>2014-01-08T12:00:59Z</time></trkpt><trkpt lat="51.7701205239" lon="-1.9657918252"><ele>182.79</ele><time>2014-01-08T12:01:16Z</time></trkpt><trkpt lat="51.7701604217" lon="-1.9659794122"><ele>181.83</ele><time>2014-01-08T12:01:27Z</time></trkpt><trkpt lat="51.7701814603" lon="-1.9661027100"><ele>181.35</ele><time>2014-01-08T12:01:34Z</time></trkpt><trkpt lat="51.7702359427" lon="-1.9663460366"><ele>180.38</ele><time>2014-01-08T12:01:49Z</time></trkpt><trkpt lat="51.7702499405" lon="-1.9664161094"><ele>179.90</ele><time>2014-01-08T12:01:53Z</time></trkpt><trkpt lat="51.7702842224" lon="-1.9665159378"><ele>178.94</ele><time>2014-01-08T12:02:01Z</time></trkpt><trkpt lat="51.7703102063" lon="-1.9666714221"><ele>178.94</ele><time>2014-01-08T12:02:10Z</time></trkpt><trkpt lat="51.7703638505" lon="-1.9669104740"><ele>177.50</ele><time>2014-01-08T12:02:24Z</time></trkpt><trkpt lat="51.7704159860" lon="-1.9672175031"><ele>176.06</ele><time>2014-01-08T12:02:41Z</time></trkpt><trkpt lat="51.7704841308" lon="-1.9675053377"><ele>174.14</ele><time>2014-01-08T12:02:58Z</time></trkpt><trkpt lat="51.7705445644" lon="-1.9677554537"><ele>172.69</ele><time>2014-01-08T12:03:13Z</time></trkpt><trkpt lat="51.7705815285" lon="-1.9678752311"><ele>172.21</ele><time>2014-01-08T12:03:21Z</time></trkpt><trkpt lat="51.7706080992" lon="-1.9680003729"><ele>171.73</ele><time>2014-01-08T12:03:34Z</time></trkpt><trkpt lat="51.7706072610" lon="-1.9680423662"><ele>170.77</ele><time>2014-01-08T12:03:51Z</time></trkpt><trkpt lat="51.7706536967" lon="-1.9681057334"><ele>169.33</ele><time>2014-01-08T12:04:01Z</time></trkpt><trkpt lat="51.7706201691" lon="-1.9682928175"><ele>168.37</ele><time>2014-01-08T12:04:14Z</time></trkpt><trkpt lat="51.7706796806" lon="-1.9682918955"><ele>168.85</ele><time>2014-01-08T12:04:27Z</time></trkpt><trkpt lat="51.7707854602" lon="-1.9683927298"><ele>168.85</ele><time>2014-01-08T12:04:42Z</time></trkpt><trkpt lat="51.7707916629" lon="-1.9684089907"><ele>168.85</ele><time>2014-01-08T12:05:02Z</time></trkpt><trkpt lat="51.7707856279" lon="-1.9684017822"><ele>168.85</ele><time>2014-01-08T12:05:22Z</time></trkpt><trkpt lat="51.7708431277" lon="-1.9684744533"><ele>167.89</ele><time>2014-01-08T12:05:37Z</time></trkpt><trkpt lat="51.7708919942" lon="-1.9685512315"><ele>166.93</ele><time>2014-01-08T12:05:52Z</time></trkpt><trkpt lat="51.7709532660" lon="-1.9686385710"><ele>165.96</ele><time>2014-01-08T12:06:04Z</time></trkpt><trkpt lat="51.7710182257" lon="-1.9687009323"><ele>165.00</ele><time>2014-01-08T12:06:18Z</time></trkpt><trkpt lat="51.7710716184" lon="-1.9687838294"><ele>163.56</ele><time>2014-01-08T12:06:33Z</time></trkpt><trkpt lat="51.7711411882" lon="-1.9688704144"><ele>162.12</ele><time>2014-01-08T12:06:48Z</time></trkpt><trkpt lat="51.7712060641" lon="-1.9689698238"><ele>160.20</ele><time>2014-01-08T12:07:04Z</time></trkpt><trkpt lat="51.7712292820" lon="-1.9690172654"><ele>159.72</ele><time>2014-01-08T12:07:19Z</time></trkpt><trkpt lat="51.7712976784" lon="-1.9690921996"><ele>157.31</ele><time>2014-01-08T12:07:35Z</time></trkpt><trkpt lat="51.7713302840" lon="-1.9691121485"><ele>155.87</ele><time>2014-01-08T12:07:48Z</time></trkpt><trkpt lat="51.7713647336" lon="-1.9691569917"><ele>154.91</ele><time>2014-01-08T12:08:03Z</time></trkpt><trkpt lat="51.7714213114" lon="-1.9692426547"><ele>154.43</ele><time>2014-01-08T12:08:16Z</time></trkpt><trkpt lat="51.7714403383" lon="-1.9692771044"><ele>153.95</ele><time>2014-01-08T12:08:27Z</time></trkpt><trkpt lat="51.7714595329" lon="-1.9692931138"><ele>153.47</ele><time>2014-01-08T12:08:38Z</time></trkpt><trkpt lat="51.7713814136" lon="-1.9691678043"><ele>154.43</ele><time>2014-01-08T12:08:51Z</time></trkpt><trkpt lat="51.7713664938" lon="-1.9691478554"><ele>155.39</ele><time>2014-01-08T12:09:04Z</time></trkpt><trkpt lat="51.7713465448" lon="-1.9691502023"><ele>156.35</ele><time>2014-01-08T12:09:15Z</time></trkpt><trkpt lat="51.7713569384" lon="-1.9691344444"><ele>154.91</ele><time>2014-01-08T12:09:29Z</time></trkpt><trkpt lat="51.7713720258" lon="-1.9691655412"><ele>154.43</ele><time>2014-01-08T12:09:42Z</time></trkpt><trkpt lat="51.7714280169" lon="-1.9692401402"><ele>153.47</ele><time>2014-01-08T12:09:51Z</time></trkpt><trkpt lat="51.7715319525" lon="-1.9694096223"><ele>151.54</ele><time>2014-01-08T12:10:05Z</time></trkpt><trkpt lat="51.7716386542" lon="-1.9694910105"><ele>149.62</ele><time>2014-01-08T12:10:18Z</time></trkpt><trkpt lat="51.7717269994" lon="-1.9695815351"><ele>147.70</ele><time>2014-01-08T12:10:31Z</time></trkpt><trkpt lat="51.7717768718" lon="-1.9695855584"><ele>147.22</ele><time>2014-01-08T12:10:40Z</time></trkpt><trkpt lat="51.7717849184" lon="-1.9695998076"><ele>147.22</ele><time>2014-01-08T12:10:51Z</time></trkpt><trkpt lat="51.7717747763" lon="-1.9696800224"><ele>146.74</ele><time>2014-01-08T12:10:57Z</time></trkpt><trkpt lat="51.7717469484" lon="-1.9697691221"><ele>145.78</ele><time>2014-01-08T12:11:04Z</time></trkpt><trkpt lat="51.7716803961" lon="-1.9698729739"><ele>145.30</ele><time>2014-01-08T12:11:10Z</time></trkpt><trkpt lat="51.7716814019" lon="-1.9698940124"><ele>144.34</ele><time>2014-01-08T12:11:13Z</time></trkpt><trkpt lat="51.7716295179" lon="-1.9699758198"><ele>143.85</ele><time>2014-01-08T12:11:18Z</time></trkpt><trkpt lat="51.7716415040" lon="-1.9700023904"><ele>144.34</ele><time>2014-01-08T12:11:21Z</time></trkpt><trkpt lat="51.7715488840" lon="-1.9701140374"><ele>142.89</ele><time>2014-01-08T12:11:26Z</time></trkpt><trkpt lat="51.7715326231" lon="-1.9701472297"><ele>143.37</ele><time>2014-01-08T12:11:32Z</time></trkpt><trkpt lat="51.7714654841" lon="-1.9702617265"><ele>142.41</ele><time>2014-01-08T12:11:41Z</time></trkpt><trkpt lat="51.7714669090" lon="-1.9702910632"><ele>141.93</ele><time>2014-01-08T12:11:43Z</time></trkpt><trkpt lat="51.7714144383" lon="-1.9703513291"><ele>142.41</ele><time>2014-01-08T12:11:46Z</time></trkpt><trkpt lat="51.7712906376" lon="-1.9705836754"><ele>140.97</ele><time>2014-01-08T12:12:01Z</time></trkpt><trkpt lat="51.7712448724" lon="-1.9707080629"><ele>139.05</ele><time>2014-01-08T12:12:11Z</time></trkpt><trkpt lat="51.7711924855" lon="-1.9708694983"><ele>138.09</ele><time>2014-01-08T12:12:21Z</time></trkpt><trkpt lat="51.7711550184" lon="-1.9709938020"><ele>138.09</ele><time>2014-01-08T12:12:29Z</time></trkpt><trkpt lat="51.7711466365" lon="-1.9710519724"><ele>137.13</ele><time>2014-01-08T12:12:32Z</time></trkpt><trkpt lat="51.7711018771" lon="-1.9711909443"><ele>136.64</ele><time>2014-01-08T12:12:40Z</time></trkpt><trkpt lat="51.7710568663" lon="-1.9713186845"><ele>136.16</ele><time>2014-01-08T12:12:46Z</time></trkpt><trkpt lat="51.7710372526" lon="-1.9714471791"><ele>135.20</ele><time>2014-01-08T12:12:53Z</time></trkpt><trkpt lat="51.7709907331" lon="-1.9715955388"><ele>136.16</ele><time>2014-01-08T12:13:05Z</time></trkpt><trkpt lat="51.7709909007" lon="-1.9715970475"><ele>135.68</ele><time>2014-01-08T12:13:06Z</time></trkpt><trkpt lat="51.7708901502" lon="-1.9717142265"><ele>135.20</ele><time>2014-01-08T12:13:15Z</time></trkpt><trkpt lat="51.7708860431" lon="-1.9717311580"><ele>134.72</ele><time>2014-01-08T12:13:17Z</time></trkpt><trkpt lat="51.7708648369" lon="-1.9717729837"><ele>134.72</ele><time>2014-01-08T12:13:20Z</time></trkpt><trkpt lat="51.7708128691" lon="-1.9718733151"><ele>134.24</ele><time>2014-01-08T12:13:29Z</time></trkpt><trkpt lat="51.7707959376" lon="-1.9718912523"><ele>133.28</ele><time>2014-01-08T12:13:31Z</time></trkpt><trkpt lat="51.7707165610" lon="-1.9719666056"><ele>133.28</ele><time>2014-01-08T12:13:42Z</time></trkpt><trkpt lat="51.7706732266" lon="-1.9720130414"><ele>132.80</ele><time>2014-01-08T12:13:51Z</time></trkpt><trkpt lat="51.7706377711" lon="-1.9720997103"><ele>132.32</ele><time>2014-01-08T12:13:57Z</time></trkpt><trkpt lat="51.7705837078" lon="-1.9722363353"><ele>131.84</ele><time>2014-01-08T12:14:06Z</time></trkpt><trkpt lat="51.7705628369" lon="-1.9723116048"><ele>131.84</ele><time>2014-01-08T12:14:09Z</time></trkpt><trkpt lat="51.7705279682" lon="-1.9725450408"><ele>131.36</ele><time>2014-01-08T12:14:21Z</time></trkpt><trkpt lat="51.7705211788" lon="-1.9726490602"><ele>130.88</ele><time>2014-01-08T12:14:28Z</time></trkpt><trkpt lat="51.7705050018" lon="-1.9727069791"><ele>130.40</ele><time>2014-01-08T12:14:33Z</time></trkpt><trkpt lat="51.7704971228" lon="-1.9727833383"><ele>129.92</ele><time>2014-01-08T12:14:37Z</time></trkpt><trkpt lat="51.7704579793" lon="-1.9728924707"><ele>129.92</ele><time>2014-01-08T12:14:43Z</time></trkpt><trkpt lat="51.7704241164" lon="-1.9730549119"><ele>129.43</ele><time>2014-01-08T12:14:56Z</time></trkpt><trkpt lat="51.7704251222" lon="-1.9730568398"><ele>129.43</ele><time>2014-01-08T12:14:57Z</time></trkpt><trkpt lat="51.7704118788" lon="-1.9731540699"><ele>129.43</ele><time>2014-01-08T12:15:03Z</time></trkpt><trkpt lat="51.7703682929" lon="-1.9733195286"><ele>128.95</ele><time>2014-01-08T12:15:13Z</time></trkpt><trkpt lat="51.7703239527" lon="-1.9734375458"><ele>127.51</ele><time>2014-01-08T12:15:20Z</time></trkpt><trkpt lat="51.7702225316" lon="-1.9734690618"><ele>127.51</ele><time>2014-01-08T12:15:28Z</time></trkpt><trkpt lat="51.7701806221" lon="-1.9734371267"><ele>127.51</ele><time>2014-01-08T12:15:33Z</time></trkpt><trkpt lat="51.7701472621" lon="-1.9734335225"><ele>127.99</ele><time>2014-01-08T12:15:44Z</time></trkpt><trkpt lat="51.7701466754" lon="-1.9734284095"><ele>127.51</ele><time>2014-01-08T12:16:08Z</time></trkpt><trkpt lat="51.7701434903" lon="-1.9734227099"><ele>127.51</ele><time>2014-01-08T12:16:42Z</time></trkpt><trkpt lat="51.7701439094" lon="-1.9734253921"><ele>127.51</ele><time>2014-01-08T12:17:11Z</time></trkpt><trkpt lat="51.7701458372" lon="-1.9734234642"><ele>128.47</ele><time>2014-01-08T12:17:36Z</time></trkpt></trkseg></trk></gpx>